<?xml version='1.0' encoding='UTF-8'?><gpx version="1.1" creator="JPX - https://github.com/jenetics/jpx" xmlns="http://www.topografix.com/GPX/1/1"><trk><trkseg><trkpt lat="43.641779323255385" lon="7.0103428154774585"><ele>207.99999999999997</ele><time>2026-04-09T09:08:58Z</time></trkpt><trkpt lat="43.64185668312032" lon="7.010295290476011"><ele>208.0</ele><time>2026-04-09T09:09:00Z</time></trkpt><trkpt lat="43.64192193840184" lon="7.010267413118379"><ele>208.0</ele><time>2026-04-09T09:09:02Z</time></trkpt><trkpt lat="43.6420085644119" lon="7.010224142784049"><ele>208.0</ele><time>2026-04-09T09:09:05Z</time></trkpt><trkpt lat="43.6420914518876" lon="7.010184315121532"><ele>207.99999999999997</ele><time>2026-04-09T09:09:07Z</time></trkpt><trkpt lat="43.64219368331201" lon="7.010176246148686"><ele>208.0</ele><time>2026-04-09T09:09:09Z</time></trkpt><trkpt lat="43.6422786195154" lon="7.010173339596202"><ele>209.33333333333331</ele><time>2026-04-09T09:09:11Z</time></trkpt><trkpt lat="43.642347544550894" lon="7.010134840860215"><ele>210.66666666666666</ele><time>2026-04-09T09:09:13Z</time></trkpt><trkpt lat="43.64242542995055" lon="7.010081011291291"><ele>212.0</ele><time>2026-04-09T09:09:16Z</time></trkpt><trkpt lat="43.6424855398254" lon="7.010110398910981"><ele>213.33333333333331</ele><time>2026-04-09T09:09:18Z</time></trkpt><trkpt lat="43.64255250385098" lon="7.0102035420199735"><ele>214.66666666666666</ele><time>2026-04-09T09:09:20Z</time></trkpt><trkpt lat="43.642582962130284" lon="7.010355908951806"><ele>216.0</ele><time>2026-04-09T09:09:22Z</time></trkpt><trkpt lat="43.64258314458792" lon="7.010444008264559"><ele>216.0</ele><time>2026-04-09T09:09:23Z</time></trkpt><trkpt lat="43.642577903570164" lon="7.01053398159193"><ele>216.0</ele><time>2026-04-09T09:09:24Z</time></trkpt><trkpt lat="43.642556576511154" lon="7.010620237080108"><ele>216.0</ele><time>2026-04-09T09:09:25Z</time></trkpt><trkpt lat="43.642490344197185" lon="7.010679894350137"><ele>216.0</ele><time>2026-04-09T09:09:26Z</time></trkpt><trkpt lat="43.642429503033775" lon="7.010703907233436"><ele>216.0</ele><time>2026-04-09T09:09:27Z</time></trkpt><trkpt lat="43.64236536138068" lon="7.010741957978076"><ele>216.0</ele><time>2026-04-09T09:09:28Z</time></trkpt><trkpt lat="43.6422941197766" lon="7.01077815992344"><ele>216.0</ele><time>2026-04-09T09:09:29Z</time></trkpt><trkpt lat="43.64221779564818" lon="7.010835632984359"><ele>216.0</ele><time>2026-04-09T09:09:30Z</time></trkpt><trkpt lat="43.64213127615617" lon="7.010864915948386"><ele>216.00000000000003</ele><time>2026-04-09T09:09:31Z</time></trkpt><trkpt lat="43.64205080480422" lon="7.01089363575476"><ele>216.00000000000003</ele><time>2026-04-09T09:09:32.001Z</time></trkpt><trkpt lat="43.64197995143649" lon="7.010930384832389"><ele>216.0</ele><time>2026-04-09T09:09:33.001Z</time></trkpt><trkpt lat="43.641880300893924" lon="7.010974317520619"><ele>216.0</ele><time>2026-04-09T09:09:35.001Z</time></trkpt><trkpt lat="43.64183395573838" lon="7.011095602194795"><ele>216.0</ele><time>2026-04-09T09:09:37.001Z</time></trkpt><trkpt lat="43.64185592695525" lon="7.011221049480194"><ele>216.0</ele><time>2026-04-09T09:09:39.001Z</time></trkpt><trkpt lat="43.64193845194452" lon="7.011375577013243"><ele>216.0</ele><time>2026-04-09T09:09:41.001Z</time></trkpt><trkpt lat="43.642046092546124" lon="7.011259936921229"><ele>216.0</ele><time>2026-04-09T09:09:42.001Z</time></trkpt><trkpt lat="43.64213416418804" lon="7.011219396801714"><ele>217.0</ele><time>2026-04-09T09:09:43.001Z</time></trkpt><trkpt lat="43.64222585829278" lon="7.011180308211035"><ele>218.00000000000003</ele><time>2026-04-09T09:09:44.001Z</time></trkpt><trkpt lat="43.64231832408417" lon="7.01115080255419"><ele>219.00000000000003</ele><time>2026-04-09T09:09:45.001Z</time></trkpt><trkpt lat="43.64240689805113" lon="7.011136001737235"><ele>220.0</ele><time>2026-04-09T09:09:46.001Z</time></trkpt><trkpt lat="43.64249539458693" lon="7.0111319701217685"><ele>221.0</ele><time>2026-04-09T09:09:47.001Z</time></trkpt><trkpt lat="43.64257634768506" lon="7.011137815372134"><ele>221.00000000000003</ele><time>2026-04-09T09:09:48.001Z</time></trkpt><trkpt lat="43.64265110957408" lon="7.011154144632143"><ele>221.0</ele><time>2026-04-09T09:09:49.001Z</time></trkpt><trkpt lat="43.64272318481321" lon="7.011198887875393"><ele>221.0</ele><time>2026-04-09T09:09:50.001Z</time></trkpt><trkpt lat="43.64278486699382" lon="7.011267397231937"><ele>221.0</ele><time>2026-04-09T09:09:51.001Z</time></trkpt><trkpt lat="43.64283390034527" lon="7.011350305851834"><ele>221.00000000000003</ele><time>2026-04-09T09:09:52.001Z</time></trkpt><trkpt lat="43.642881772367765" lon="7.011453992582403"><ele>221.0</ele><time>2026-04-09T09:09:53.001Z</time></trkpt><trkpt lat="43.64292660478747" lon="7.011575286118547"><ele>222.8</ele><time>2026-04-09T09:09:54.001Z</time></trkpt><trkpt lat="43.64297618985521" lon="7.011681898966239"><ele>224.60000000000002</ele><time>2026-04-09T09:09:55.001Z</time></trkpt><trkpt lat="43.64304646564085" lon="7.011781958541341"><ele>226.4</ele><time>2026-04-09T09:09:56.001Z</time></trkpt><trkpt lat="43.64311323005217" lon="7.011885230322435"><ele>228.2</ele><time>2026-04-09T09:09:57.001Z</time></trkpt><trkpt lat="43.6431674553915" lon="7.012015615706625"><ele>230.0</ele><time>2026-04-09T09:09:58.001Z</time></trkpt><trkpt lat="43.64321355821474" lon="7.01216801725353"><ele>230.0</ele><time>2026-04-09T09:09:59.001Z</time></trkpt><trkpt lat="43.64326112595226" lon="7.012334791576088"><ele>230.0</ele><time>2026-04-09T09:10:00.001Z</time></trkpt><trkpt lat="43.64330505019776" lon="7.012492470837991"><ele>230.0</ele><time>2026-04-09T09:10:01.001Z</time></trkpt><trkpt lat="43.64334954638579" lon="7.0126424416062845"><ele>230.0</ele><time>2026-04-09T09:10:02.001Z</time></trkpt><trkpt lat="43.64339247085523" lon="7.01278871832267"><ele>230.0</ele><time>2026-04-09T09:10:03.001Z</time></trkpt><trkpt lat="43.643435262246584" lon="7.012933879914402"><ele>230.0</ele><time>2026-04-09T09:10:04.001Z</time></trkpt><trkpt lat="43.643477860189144" lon="7.013085600096109"><ele>230.0</ele><time>2026-04-09T09:10:05.001Z</time></trkpt><trkpt lat="43.643522430128286" lon="7.0132372986788285"><ele>230.0</ele><time>2026-04-09T09:10:06.001Z</time></trkpt><trkpt lat="43.643564381935775" lon="7.013380758960302"><ele>230.0</ele><time>2026-04-09T09:10:07.001Z</time></trkpt><trkpt lat="43.64360434023284" lon="7.013513742319645"><ele>230.0</ele><time>2026-04-09T09:10:08.001Z</time></trkpt><trkpt lat="43.643640990783865" lon="7.0136416946277755"><ele>230.0</ele><time>2026-04-09T09:10:09.001Z</time></trkpt><trkpt lat="43.64367134058603" lon="7.013781979265986"><ele>230.0</ele><time>2026-04-09T09:10:10.001Z</time></trkpt><trkpt lat="43.643703483146126" lon="7.013928306485344"><ele>230.0</ele><time>2026-04-09T09:10:11.001Z</time></trkpt><trkpt lat="43.643735809154634" lon="7.014076170009878"><ele>228.2</ele><time>2026-04-09T09:10:12.001Z</time></trkpt><trkpt lat="43.64376423929841" lon="7.0142166019566075"><ele>226.4</ele><time>2026-04-09T09:10:13.001Z</time></trkpt><trkpt lat="43.64378872772663" lon="7.014356692833198"><ele>224.60000000000002</ele><time>2026-04-09T09:10:14.001Z</time></trkpt><trkpt lat="43.6438227974235" lon="7.014505233068856"><ele>222.8</ele><time>2026-04-09T09:10:15.001Z</time></trkpt><trkpt lat="43.64385314037931" lon="7.014647185295162"><ele>221.0</ele><time>2026-04-09T09:10:16.001Z</time></trkpt><trkpt lat="43.64388201122432" lon="7.014792630068168"><ele>221.0</ele><time>2026-04-09T09:10:17.001Z</time></trkpt><trkpt lat="43.64390807898344" lon="7.01494030104979"><ele>221.00000000000003</ele><time>2026-04-09T09:10:18.001Z</time></trkpt><trkpt lat="43.64393295566835" lon="7.01508405170169"><ele>221.00000000000003</ele><time>2026-04-09T09:10:19.001Z</time></trkpt><trkpt lat="43.643959609308894" lon="7.015213960578387"><ele>221.0</ele><time>2026-04-09T09:10:20.001Z</time></trkpt><trkpt lat="43.64398565723837" lon="7.01535433303418"><ele>221.0</ele><time>2026-04-09T09:10:21.001Z</time></trkpt><trkpt lat="43.64400711652929" lon="7.015490521816007"><ele>220.4</ele><time>2026-04-09T09:10:22.001Z</time></trkpt><trkpt lat="43.64403245954544" lon="7.015630205854144"><ele>219.8</ele><time>2026-04-09T09:10:23.001Z</time></trkpt><trkpt lat="43.644060751568745" lon="7.015775296395398"><ele>219.20000000000002</ele><time>2026-04-09T09:10:24.001Z</time></trkpt><trkpt lat="43.6440881880678" lon="7.015927739736835"><ele>218.60000000000002</ele><time>2026-04-09T09:10:25.001Z</time></trkpt><trkpt lat="43.644113625768846" lon="7.016073737673397"><ele>218.0</ele><time>2026-04-09T09:10:26.001Z</time></trkpt><trkpt lat="43.644135714230245" lon="7.0162143384040325"><ele>217.75</ele><time>2026-04-09T09:10:27.001Z</time></trkpt><trkpt lat="43.644143453884475" lon="7.0163608085544045"><ele>217.5</ele><time>2026-04-09T09:10:28.001Z</time></trkpt><trkpt lat="43.644135761802346" lon="7.016520413854216"><ele>217.25</ele><time>2026-04-09T09:10:29.001Z</time></trkpt><trkpt lat="43.64412353179956" lon="7.016682768460013"><ele>217.0</ele><time>2026-04-09T09:10:30.001Z</time></trkpt><trkpt lat="43.64411451760887" lon="7.016835922807078"><ele>216.39999999999998</ele><time>2026-04-09T09:10:31.001Z</time></trkpt><trkpt lat="43.64410324354158" lon="7.0169858352549825"><ele>215.79999999999998</ele><time>2026-04-09T09:10:32.001Z</time></trkpt><trkpt lat="43.64410076430004" lon="7.017147897042657"><ele>215.2</ele><time>2026-04-09T09:10:33.001Z</time></trkpt><trkpt lat="43.644107135895105" lon="7.017305480421015"><ele>214.6</ele><time>2026-04-09T09:10:34.001Z</time></trkpt><trkpt lat="43.644114919387455" lon="7.017445443672772"><ele>214.0</ele><time>2026-04-09T09:10:35.001Z</time></trkpt><trkpt lat="43.644123717226165" lon="7.017584754122894"><ele>214.0</ele><time>2026-04-09T09:10:36.001Z</time></trkpt><trkpt lat="43.64413112634994" lon="7.017728312672668"><ele>213.99999999999997</ele><time>2026-04-09T09:10:37.001Z</time></trkpt><trkpt lat="43.64414597677299" lon="7.017877206220906"><ele>213.99999999999997</ele><time>2026-04-09T09:10:38.001Z</time></trkpt><trkpt lat="43.644158748573396" lon="7.018028266481427"><ele>214.0</ele><time>2026-04-09T09:10:39.001Z</time></trkpt><trkpt lat="43.64417253754959" lon="7.0181822718603755"><ele>214.0</ele><time>2026-04-09T09:10:40.001Z</time></trkpt><trkpt lat="43.64417791241961" lon="7.0183328713393776"><ele>214.6</ele><time>2026-04-09T09:10:41.001Z</time></trkpt><trkpt lat="43.64418465334987" lon="7.018481585158589"><ele>215.2</ele><time>2026-04-09T09:10:42.001Z</time></trkpt><trkpt lat="43.64419270731548" lon="7.018635873552521"><ele>215.79999999999998</ele><time>2026-04-09T09:10:43.001Z</time></trkpt><trkpt lat="43.64420336441805" lon="7.018790874476228"><ele>216.39999999999998</ele><time>2026-04-09T09:10:44.001Z</time></trkpt><trkpt lat="43.64421252357817" lon="7.018949585545383"><ele>217.0</ele><time>2026-04-09T09:10:45.001Z</time></trkpt><trkpt lat="43.644220748938444" lon="7.019105075420868"><ele>217.6</ele><time>2026-04-09T09:10:46.001Z</time></trkpt><trkpt lat="43.644226142837596" lon="7.01925658795764"><ele>218.2</ele><time>2026-04-09T09:10:47Z</time></trkpt><trkpt lat="43.64422852469525" lon="7.019400959251891"><ele>218.8</ele><time>2026-04-09T09:10:48Z</time></trkpt><trkpt lat="43.644230674509565" lon="7.019531563265602"><ele>219.4</ele><time>2026-04-09T09:10:49Z</time></trkpt><trkpt lat="43.64423252367806" lon="7.0196440309237085"><ele>220.0</ele><time>2026-04-09T09:10:50Z</time></trkpt><trkpt lat="43.6442359416557" lon="7.019752315707291"><ele>219.99999999999997</ele><time>2026-04-09T09:10:51Z</time></trkpt><trkpt lat="43.6442315217608" lon="7.019856093161804"><ele>220.0</ele><time>2026-04-09T09:10:52Z</time></trkpt><trkpt lat="43.64421102378676" lon="7.019960626252697"><ele>220.0</ele><time>2026-04-09T09:10:53Z</time></trkpt><trkpt lat="43.644172528215876" lon="7.020052925620733"><ele>220.0</ele><time>2026-04-09T09:10:54Z</time></trkpt><trkpt lat="43.64412803493673" lon="7.020138368703686"><ele>220.0</ele><time>2026-04-09T09:10:55Z</time></trkpt><trkpt lat="43.64409842609431" lon="7.020220808066352"><ele>219.99999999999997</ele><time>2026-04-09T09:10:56Z</time></trkpt><trkpt lat="43.64409489775949" lon="7.0203093982029054"><ele>220.0</ele><time>2026-04-09T09:10:57Z</time></trkpt><trkpt lat="43.64411569497566" lon="7.020399649185218"><ele>219.66666666666666</ele><time>2026-04-09T09:10:58Z</time></trkpt><trkpt lat="43.644158151113665" lon="7.020474839368196"><ele>219.33333333333331</ele><time>2026-04-09T09:10:59Z</time></trkpt><trkpt lat="43.64421760849193" lon="7.020518780320916"><ele>219.0</ele><time>2026-04-09T09:11:00Z</time></trkpt><trkpt lat="43.644292481163305" lon="7.020519580290214"><ele>218.66666666666669</ele><time>2026-04-09T09:11:01Z</time></trkpt><trkpt lat="43.644364727100154" lon="7.020533782213703"><ele>218.33333333333334</ele><time>2026-04-09T09:11:02Z</time></trkpt><trkpt lat="43.64443406855251" lon="7.02058365000455"><ele>218.0</ele><time>2026-04-09T09:11:03Z</time></trkpt><trkpt lat="43.644513427048196" lon="7.02066982743313"><ele>217.0</ele><time>2026-04-09T09:11:04Z</time></trkpt><trkpt lat="43.644589045908496" lon="7.020740349700579"><ele>216.0</ele><time>2026-04-09T09:11:05Z</time></trkpt><trkpt lat="43.644680257272654" lon="7.020802451035404"><ele>215.0</ele><time>2026-04-09T09:11:06Z</time></trkpt><trkpt lat="43.6447853464832" lon="7.020831959186129"><ele>214.0</ele><time>2026-04-09T09:11:07Z</time></trkpt><trkpt lat="43.6448813020818" lon="7.020865955611394"><ele>213.0</ele><time>2026-04-09T09:11:08Z</time></trkpt><trkpt lat="43.64497779498833" lon="7.020896830839538"><ele>212.8</ele><time>2026-04-09T09:11:09Z</time></trkpt><trkpt lat="43.64507534350958" lon="7.020929389220571"><ele>212.60000000000002</ele><time>2026-04-09T09:11:10Z</time></trkpt><trkpt lat="43.64517939802786" lon="7.02095895069204"><ele>212.39999999999998</ele><time>2026-04-09T09:11:11Z</time></trkpt><trkpt lat="43.64527736633872" lon="7.021012790424152"><ele>212.2</ele><time>2026-04-09T09:11:12Z</time></trkpt><trkpt lat="43.64537507777732" lon="7.021065949274434"><ele>212.0</ele><time>2026-04-09T09:11:13Z</time></trkpt><trkpt lat="43.64547846448763" lon="7.021131681339025"><ele>211.0</ele><time>2026-04-09T09:11:14Z</time></trkpt><trkpt lat="43.64557907976287" lon="7.021206516209077"><ele>210.0</ele><time>2026-04-09T09:11:15Z</time></trkpt><trkpt lat="43.645674636878766" lon="7.021279241456888"><ele>209.0</ele><time>2026-04-09T09:11:16Z</time></trkpt><trkpt lat="43.645761818855284" lon="7.02135830943084"><ele>208.0</ele><time>2026-04-09T09:11:17Z</time></trkpt><trkpt lat="43.64584600687531" lon="7.02142085863092"><ele>207.0</ele><time>2026-04-09T09:11:18Z</time></trkpt><trkpt lat="43.645951716514176" lon="7.021493797041574"><ele>207.0</ele><time>2026-04-09T09:11:19Z</time></trkpt><trkpt lat="43.646060829391224" lon="7.021561113531945"><ele>207.0</ele><time>2026-04-09T09:11:20Z</time></trkpt><trkpt lat="43.6461787163038" lon="7.021628157765283"><ele>207.0</ele><time>2026-04-09T09:11:21Z</time></trkpt><trkpt lat="43.64631307072968" lon="7.0217011844702695"><ele>207.0</ele><time>2026-04-09T09:11:22Z</time></trkpt><trkpt lat="43.64643699576726" lon="7.021774294146594"><ele>205.5</ele><time>2026-04-09T09:11:23Z</time></trkpt><trkpt lat="43.64655156051329" lon="7.0218371730541005"><ele>204.0</ele><time>2026-04-09T09:11:24Z</time></trkpt><trkpt lat="43.64666495334548" lon="7.021896594679193"><ele>202.5</ele><time>2026-04-09T09:11:25Z</time></trkpt><trkpt lat="43.64677495061276" lon="7.021959551743197"><ele>201.0</ele><time>2026-04-09T09:11:26Z</time></trkpt><trkpt lat="43.646893957358074" lon="7.022016537713852"><ele>200.5</ele><time>2026-04-09T09:11:27Z</time></trkpt><trkpt lat="43.64701215678443" lon="7.0220858898272365"><ele>200.0</ele><time>2026-04-09T09:11:28Z</time></trkpt><trkpt lat="43.64712924793418" lon="7.022144472241417"><ele>199.5</ele><time>2026-04-09T09:11:29Z</time></trkpt><trkpt lat="43.647244295577295" lon="7.022210283672716"><ele>199.0</ele><time>2026-04-09T09:11:30Z</time></trkpt><trkpt lat="43.64735547652944" lon="7.022276326554342"><ele>199.0</ele><time>2026-04-09T09:11:31Z</time></trkpt><trkpt lat="43.647463593316196" lon="7.022337457745138"><ele>199.0</ele><time>2026-04-09T09:11:32Z</time></trkpt><trkpt lat="43.64758018388621" lon="7.022400160029642"><ele>199.0</ele><time>2026-04-09T09:11:33Z</time></trkpt><trkpt lat="43.64769976419972" lon="7.022471048785328"><ele>199.0</ele><time>2026-04-09T09:11:34Z</time></trkpt><trkpt lat="43.64782264848294" lon="7.022560363704278"><ele>198.5</ele><time>2026-04-09T09:11:35Z</time></trkpt><trkpt lat="43.64794121021073" lon="7.022667960071706"><ele>198.0</ele><time>2026-04-09T09:11:36Z</time></trkpt><trkpt lat="43.64805442516287" lon="7.022769346880081"><ele>197.5</ele><time>2026-04-09T09:11:37Z</time></trkpt><trkpt lat="43.648166629913" lon="7.0228674020605455"><ele>197.0</ele><time>2026-04-09T09:11:38Z</time></trkpt><trkpt lat="43.64828423581234" lon="7.022966234577027"><ele>197.0</ele><time>2026-04-09T09:11:39Z</time></trkpt><trkpt lat="43.648399407480845" lon="7.023052250233386"><ele>197.0</ele><time>2026-04-09T09:11:40Z</time></trkpt><trkpt lat="43.6485151593179" lon="7.023137784416202"><ele>197.0</ele><time>2026-04-09T09:11:41Z</time></trkpt><trkpt lat="43.648630489010074" lon="7.023214541290052"><ele>197.0</ele><time>2026-04-09T09:11:42Z</time></trkpt><trkpt lat="43.6487450730042" lon="7.023288355027535"><ele>196.5</ele><time>2026-04-09T09:11:43Z</time></trkpt><trkpt lat="43.64885629029539" lon="7.023351670260932"><ele>196.0</ele><time>2026-04-09T09:11:44Z</time></trkpt><trkpt lat="43.64897182141511" lon="7.023415703137461"><ele>195.5</ele><time>2026-04-09T09:11:45Z</time></trkpt><trkpt lat="43.64908474787467" lon="7.023462107449312"><ele>195.0</ele><time>2026-04-09T09:11:46Z</time></trkpt><trkpt lat="43.64919905888278" lon="7.023517118879068"><ele>195.0</ele><time>2026-04-09T09:11:47Z</time></trkpt><trkpt lat="43.6493104362154" lon="7.023585158156103"><ele>195.0</ele><time>2026-04-09T09:11:48.001Z</time></trkpt><trkpt lat="43.64942274038713" lon="7.023663988920293"><ele>195.0</ele><time>2026-04-09T09:11:49.001Z</time></trkpt><trkpt lat="43.6495367393867" lon="7.023755702979871"><ele>195.0</ele><time>2026-04-09T09:11:50.001Z</time></trkpt><trkpt lat="43.64963824621634" lon="7.023854305249133"><ele>195.0</ele><time>2026-04-09T09:11:51.001Z</time></trkpt><trkpt lat="43.64973309224194" lon="7.023964737656413"><ele>195.0</ele><time>2026-04-09T09:11:52.001Z</time></trkpt><trkpt lat="43.64982737307454" lon="7.024093538068798"><ele>195.0</ele><time>2026-04-09T09:11:53.001Z</time></trkpt><trkpt lat="43.64991834805741" lon="7.02423908070909"><ele>195.0</ele><time>2026-04-09T09:11:54.001Z</time></trkpt><trkpt lat="43.65000214657868" lon="7.02440040444515"><ele>195.0</ele><time>2026-04-09T09:11:55.001Z</time></trkpt><trkpt lat="43.65008083965715" lon="7.024562170715929"><ele>195.0</ele><time>2026-04-09T09:11:56.001Z</time></trkpt><trkpt lat="43.6501519197441" lon="7.024725291312724"><ele>195.0</ele><time>2026-04-09T09:11:57.001Z</time></trkpt><trkpt lat="43.650220806263434" lon="7.024877935827387"><ele>195.0</ele><time>2026-04-09T09:11:58.001Z</time></trkpt><trkpt lat="43.65030032121377" lon="7.025017247755731"><ele>193.25</ele><time>2026-04-09T09:11:59.001Z</time></trkpt><trkpt lat="43.65039678551289" lon="7.025140618069207"><ele>191.5</ele><time>2026-04-09T09:12:00.001Z</time></trkpt><trkpt lat="43.65048683953525" lon="7.025278412610701"><ele>189.75</ele><time>2026-04-09T09:12:01.001Z</time></trkpt><trkpt lat="43.65056598743552" lon="7.025392323757143"><ele>188.0</ele><time>2026-04-09T09:12:02.001Z</time></trkpt><trkpt lat="43.65065187111361" lon="7.02552180256869"><ele>188.0</ele><time>2026-04-09T09:12:03.001Z</time></trkpt><trkpt lat="43.650686171133046" lon="7.025689813358485"><ele>188.0</ele><time>2026-04-09T09:12:04.001Z</time></trkpt><trkpt lat="43.650708957439065" lon="7.025865295244963"><ele>188.0</ele><time>2026-04-09T09:12:05.001Z</time></trkpt><trkpt lat="43.65073346993914" lon="7.026054637529241"><ele>188.0</ele><time>2026-04-09T09:12:06.001Z</time></trkpt><trkpt lat="43.650771456149684" lon="7.026245988560902"><ele>187.4</ele><time>2026-04-09T09:12:07.001Z</time></trkpt><trkpt lat="43.65078474609269" lon="7.02641410776211"><ele>186.8</ele><time>2026-04-09T09:12:08.001Z</time></trkpt><trkpt lat="43.65079919125704" lon="7.026573343155898"><ele>186.2</ele><time>2026-04-09T09:12:09.001Z</time></trkpt><trkpt lat="43.650813052172396" lon="7.026718318281493"><ele>185.6</ele><time>2026-04-09T09:12:10.001Z</time></trkpt><trkpt lat="43.650842009046215" lon="7.026857100259374"><ele>185.0</ele><time>2026-04-09T09:12:11.001Z</time></trkpt><trkpt lat="43.65089778613608" lon="7.02698929284079"><ele>184.75</ele><time>2026-04-09T09:12:12.001Z</time></trkpt><trkpt lat="43.6509844205483" lon="7.0271000506234955"><ele>184.5</ele><time>2026-04-09T09:12:13.001Z</time></trkpt><trkpt lat="43.65109710672043" lon="7.027177324672447"><ele>184.25</ele><time>2026-04-09T09:12:14.001Z</time></trkpt><trkpt lat="43.651234237890975" lon="7.027223113163727"><ele>184.0</ele><time>2026-04-09T09:12:15.001Z</time></trkpt><trkpt lat="43.65138729605206" lon="7.027250588930419"><ele>184.0</ele><time>2026-04-09T09:12:16.001Z</time></trkpt><trkpt lat="43.651534357910116" lon="7.027287561381812"><ele>184.0</ele><time>2026-04-09T09:12:17.001Z</time></trkpt><trkpt lat="43.651669987612884" lon="7.027332031831432"><ele>184.0</ele><time>2026-04-09T09:12:18.001Z</time></trkpt><trkpt lat="43.65178324340693" lon="7.027414291687289"><ele>184.0</ele><time>2026-04-09T09:12:19.001Z</time></trkpt><trkpt lat="43.65189333523242" lon="7.027513034338134"><ele>186.0</ele><time>2026-04-09T09:12:20.001Z</time></trkpt><trkpt lat="43.651989771516014" lon="7.02764049763366"><ele>188.0</ele><time>2026-04-09T09:12:21.001Z</time></trkpt><trkpt lat="43.65207173245291" lon="7.027797020741362"><ele>190.0</ele><time>2026-04-09T09:12:22.001Z</time></trkpt><trkpt lat="43.65215236316958" lon="7.027972714818684"><ele>192.0</ele><time>2026-04-09T09:12:23.001Z</time></trkpt><trkpt lat="43.65222940839971" lon="7.028149662976573"><ele>192.0</ele><time>2026-04-09T09:12:24.001Z</time></trkpt><trkpt lat="43.652309032116975" lon="7.028292838953751"><ele>192.0</ele><time>2026-04-09T09:12:25.001Z</time></trkpt><trkpt lat="43.65234567316603" lon="7.028430865064853"><ele>192.0</ele><time>2026-04-09T09:12:26.001Z</time></trkpt><trkpt lat="43.65241232524977" lon="7.028529042803118"><ele>192.0</ele><time>2026-04-09T09:12:27.001Z</time></trkpt><trkpt lat="43.65250647648506" lon="7.028605918897919"><ele>192.0</ele><time>2026-04-09T09:12:28.001Z</time></trkpt><trkpt lat="43.652620585326176" lon="7.028653270809325"><ele>191.5</ele><time>2026-04-09T09:12:29.001Z</time></trkpt><trkpt lat="43.65273260711217" lon="7.028670293985144"><ele>191.0</ele><time>2026-04-09T09:12:30.001Z</time></trkpt><trkpt lat="43.65284128959313" lon="7.028642954588174"><ele>190.5</ele><time>2026-04-09T09:12:31.001Z</time></trkpt><trkpt lat="43.652955855513795" lon="7.028580665192892"><ele>190.0</ele><time>2026-04-09T09:12:32.001Z</time></trkpt><trkpt lat="43.65307512157046" lon="7.02849853287067"><ele>190.0</ele><time>2026-04-09T09:12:33.001Z</time></trkpt><trkpt lat="43.6531981494392" lon="7.028430411998074"><ele>190.0</ele><time>2026-04-09T09:12:34.001Z</time></trkpt><trkpt lat="43.653302525023406" lon="7.028367743916047"><ele>190.0</ele><time>2026-04-09T09:12:35.001Z</time></trkpt><trkpt lat="43.65341991069654" lon="7.028306301908927"><ele>190.0</ele><time>2026-04-09T09:12:36.001Z</time></trkpt><trkpt lat="43.653542037787886" lon="7.028237911604038"><ele>191.0</ele><time>2026-04-09T09:12:37.001Z</time></trkpt><trkpt lat="43.653664243452845" lon="7.028161736600014"><ele>192.0</ele><time>2026-04-09T09:12:38.001Z</time></trkpt><trkpt lat="43.65377388702688" lon="7.028099507888388"><ele>193.0</ele><time>2026-04-09T09:12:39.001Z</time></trkpt><trkpt lat="43.65387802097444" lon="7.0280224235693325"><ele>194.0</ele><time>2026-04-09T09:12:40.001Z</time></trkpt><trkpt lat="43.65396787071876" lon="7.0279287708815845"><ele>194.0</ele><time>2026-04-09T09:12:41.001Z</time></trkpt><trkpt lat="43.6540464855952" lon="7.0278114744916165"><ele>194.0</ele><time>2026-04-09T09:12:42.001Z</time></trkpt><trkpt lat="43.654118173806694" lon="7.027662314968679"><ele>194.0</ele><time>2026-04-09T09:12:43.001Z</time></trkpt><trkpt lat="43.65419924417747" lon="7.027524218093107"><ele>194.0</ele><time>2026-04-09T09:12:44.001Z</time></trkpt><trkpt lat="43.65425241558012" lon="7.027364971615051"><ele>195.0</ele><time>2026-04-09T09:12:45.001Z</time></trkpt><trkpt lat="43.654316677545054" lon="7.02722252920936"><ele>196.0</ele><time>2026-04-09T09:12:46.001Z</time></trkpt><trkpt lat="43.65438321945771" lon="7.027082688569136"><ele>197.0</ele><time>2026-04-09T09:12:47.001Z</time></trkpt><trkpt lat="43.65444785915089" lon="7.026946873271805"><ele>198.0</ele><time>2026-04-09T09:12:48.001Z</time></trkpt><trkpt lat="43.65451663128025" lon="7.026806249948271"><ele>196.25</ele><time>2026-04-09T09:12:49.001Z</time></trkpt><trkpt lat="43.6545827268066" lon="7.026658377502018"><ele>194.5</ele><time>2026-04-09T09:12:50.001Z</time></trkpt><trkpt lat="43.654647560112274" lon="7.026512668932272"><ele>192.75</ele><time>2026-04-09T09:12:51.001Z</time></trkpt><trkpt lat="43.65471271346817" lon="7.026368314719272"><ele>191.0</ele><time>2026-04-09T09:12:52.001Z</time></trkpt><trkpt lat="43.65477840399086" lon="7.026227278672244"><ele>191.0</ele><time>2026-04-09T09:12:53Z</time></trkpt><trkpt lat="43.6548389508306" lon="7.026097575617344"><ele>191.0</ele><time>2026-04-09T09:12:54Z</time></trkpt><trkpt lat="43.65489027406754" lon="7.025991056336767"><ele>191.0</ele><time>2026-04-09T09:12:55Z</time></trkpt><trkpt lat="43.654938710546354" lon="7.0259131465637115"><ele>191.0</ele><time>2026-04-09T09:12:56Z</time></trkpt><trkpt lat="43.655012017185825" lon="7.025866025512384"><ele>191.0</ele><time>2026-04-09T09:12:57Z</time></trkpt><trkpt lat="43.65511080395679" lon="7.025840034765325"><ele>191.0</ele><time>2026-04-09T09:12:58Z</time></trkpt><trkpt lat="43.65522109529045" lon="7.0258392840842925"><ele>191.0</ele><time>2026-04-09T09:12:59Z</time></trkpt><trkpt lat="43.65533792009738" lon="7.025889594967812"><ele>191.0</ele><time>2026-04-09T09:13:00Z</time></trkpt><trkpt lat="43.65546033442004" lon="7.025986922441407"><ele>191.0</ele><time>2026-04-09T09:13:01Z</time></trkpt><trkpt lat="43.65559218485094" lon="7.026098656337059"><ele>192.75</ele><time>2026-04-09T09:13:02Z</time></trkpt><trkpt lat="43.655726417975075" lon="7.026202014683877"><ele>194.5</ele><time>2026-04-09T09:13:03Z</time></trkpt><trkpt lat="43.655852666133974" lon="7.026280284687463"><ele>196.25</ele><time>2026-04-09T09:13:04Z</time></trkpt><trkpt lat="43.655971187463045" lon="7.026335519563707"><ele>198.0</ele><time>2026-04-09T09:13:05Z</time></trkpt><trkpt lat="43.656083579111595" lon="7.0263835252161595"><ele>199.75</ele><time>2026-04-09T09:13:06Z</time></trkpt><trkpt lat="43.6561912351852" lon="7.02643199490235"><ele>201.5</ele><time>2026-04-09T09:13:07Z</time></trkpt><trkpt lat="43.65631087920597" lon="7.026475650862788"><ele>203.25</ele><time>2026-04-09T09:13:08Z</time></trkpt><trkpt lat="43.65643011884717" lon="7.026529589868717"><ele>205.0</ele><time>2026-04-09T09:13:09Z</time></trkpt><trkpt lat="43.65655330554237" lon="7.026582558336102"><ele>205.0</ele><time>2026-04-09T09:13:10Z</time></trkpt><trkpt lat="43.65667124272901" lon="7.026630432362749"><ele>205.0</ele><time>2026-04-09T09:13:11Z</time></trkpt><trkpt lat="43.65678294769084" lon="7.026679471851069"><ele>205.0</ele><time>2026-04-09T09:13:12Z</time></trkpt><trkpt lat="43.65689587427611" lon="7.02673568282367"><ele>205.0</ele><time>2026-04-09T09:13:13Z</time></trkpt><trkpt lat="43.657014774585875" lon="7.026804225042654"><ele>204.75</ele><time>2026-04-09T09:13:14Z</time></trkpt><trkpt lat="43.657135731891586" lon="7.0268784413659375"><ele>204.5</ele><time>2026-04-09T09:13:15Z</time></trkpt><trkpt lat="43.65724885143751" lon="7.026960705715019"><ele>204.25</ele><time>2026-04-09T09:13:16Z</time></trkpt><trkpt lat="43.65735423079159" lon="7.027042153482826"><ele>204.0</ele><time>2026-04-09T09:13:17Z</time></trkpt><trkpt lat="43.657459639620626" lon="7.027128430610322"><ele>204.0</ele><time>2026-04-09T09:13:18Z</time></trkpt><trkpt lat="43.65756657919977" lon="7.0272280077595575"><ele>204.0</ele><time>2026-04-09T09:13:19Z</time></trkpt><trkpt lat="43.65766926475796" lon="7.027336325196934"><ele>204.0</ele><time>2026-04-09T09:13:20Z</time></trkpt><trkpt lat="43.65776329985549" lon="7.027451318617267"><ele>204.0</ele><time>2026-04-09T09:13:21Z</time></trkpt><trkpt lat="43.65784766266233" lon="7.027562948915765"><ele>203.75</ele><time>2026-04-09T09:13:22Z</time></trkpt><trkpt lat="43.65792860988142" lon="7.027687669162541"><ele>203.5</ele><time>2026-04-09T09:13:23Z</time></trkpt><trkpt lat="43.65800826573567" lon="7.02781151590417"><ele>203.25</ele><time>2026-04-09T09:13:24Z</time></trkpt><trkpt lat="43.6580929663735" lon="7.027931628831257"><ele>203.0</ele><time>2026-04-09T09:13:25Z</time></trkpt><trkpt lat="43.658181745799084" lon="7.028061364207564"><ele>203.0</ele><time>2026-04-09T09:13:26Z</time></trkpt><trkpt lat="43.6582679573054" lon="7.028187395092321"><ele>203.0</ele><time>2026-04-09T09:13:27Z</time></trkpt><trkpt lat="43.65835634215491" lon="7.028313489006352"><ele>203.0</ele><time>2026-04-09T09:13:28Z</time></trkpt><trkpt lat="43.65844839838843" lon="7.028439443534185"><ele>203.0</ele><time>2026-04-09T09:13:29Z</time></trkpt><trkpt lat="43.65853484340743" lon="7.028567901728241"><ele>204.5</ele><time>2026-04-09T09:13:30Z</time></trkpt><trkpt lat="43.65861986954712" lon="7.028694871049398"><ele>206.0</ele><time>2026-04-09T09:13:31Z</time></trkpt><trkpt lat="43.6587025972995" lon="7.02881305542929"><ele>207.5</ele><time>2026-04-09T09:13:32Z</time></trkpt><trkpt lat="43.65877880879579" lon="7.028922881948314"><ele>209.0</ele><time>2026-04-09T09:13:33Z</time></trkpt><trkpt lat="43.658856543001704" lon="7.029038428827747"><ele>209.0</ele><time>2026-04-09T09:13:34Z</time></trkpt><trkpt lat="43.65894181364008" lon="7.029157745867747"><ele>209.0</ele><time>2026-04-09T09:13:35Z</time></trkpt><trkpt lat="43.6590276728503" lon="7.029284065137852"><ele>209.0</ele><time>2026-04-09T09:13:36Z</time></trkpt><trkpt lat="43.65911070395949" lon="7.0294074954306"><ele>209.0</ele><time>2026-04-09T09:13:37Z</time></trkpt><trkpt lat="43.65918826882221" lon="7.029516557616018"><ele>209.0</ele><time>2026-04-09T09:13:38Z</time></trkpt><trkpt lat="43.659258429722094" lon="7.029626619424858"><ele>209.0</ele><time>2026-04-09T09:13:39Z</time></trkpt><trkpt lat="43.65933005701055" lon="7.029742071010606"><ele>209.0</ele><time>2026-04-09T09:13:40Z</time></trkpt><trkpt lat="43.659415991246" lon="7.029859898152168"><ele>209.0</ele><time>2026-04-09T09:13:41Z</time></trkpt><trkpt lat="43.659497427471656" lon="7.029979721982664"><ele>207.25</ele><time>2026-04-09T09:13:42Z</time></trkpt><trkpt lat="43.65958319714513" lon="7.030093249766384"><ele>205.5</ele><time>2026-04-09T09:13:43Z</time></trkpt><trkpt lat="43.65967828788522" lon="7.030213849369384"><ele>203.75</ele><time>2026-04-09T09:13:44Z</time></trkpt><trkpt lat="43.659787914635324" lon="7.030316077543703"><ele>202.0</ele><time>2026-04-09T09:13:45Z</time></trkpt><trkpt lat="43.659904098611186" lon="7.030399685297371"><ele>202.0</ele><time>2026-04-09T09:13:46Z</time></trkpt><trkpt lat="43.66002615499065" lon="7.030482920837572"><ele>202.0</ele><time>2026-04-09T09:13:47Z</time></trkpt><trkpt lat="43.660146809365244" lon="7.030571734873131"><ele>202.0</ele><time>2026-04-09T09:13:48Z</time></trkpt><trkpt lat="43.660243865820554" lon="7.030672096637986"><ele>202.0</ele><time>2026-04-09T09:13:49Z</time></trkpt><trkpt lat="43.66034531571651" lon="7.030792852071273"><ele>200.25</ele><time>2026-04-09T09:13:50Z</time></trkpt><trkpt lat="43.66043814128311" lon="7.030939218214414"><ele>198.5</ele><time>2026-04-09T09:13:51Z</time></trkpt><trkpt lat="43.66051493410837" lon="7.031102529660584"><ele>196.75</ele><time>2026-04-09T09:13:52Z</time></trkpt><trkpt lat="43.660585742866694" lon="7.031274802467769"><ele>195.0</ele><time>2026-04-09T09:13:53Z</time></trkpt><trkpt lat="43.66064628478656" lon="7.031451917373215"><ele>194.5</ele><time>2026-04-09T09:13:54Z</time></trkpt><trkpt lat="43.66068980637964" lon="7.031640590123268"><ele>194.0</ele><time>2026-04-09T09:13:55Z</time></trkpt><trkpt lat="43.660724408038064" lon="7.031818254905689"><ele>193.5</ele><time>2026-04-09T09:13:56Z</time></trkpt><trkpt lat="43.66075780870343" lon="7.03198860562308"><ele>193.0</ele><time>2026-04-09T09:13:57Z</time></trkpt><trkpt lat="43.66078050836462" lon="7.032150447283323"><ele>193.0</ele><time>2026-04-09T09:13:58Z</time></trkpt><trkpt lat="43.660812326100704" lon="7.032313291678439"><ele>193.0</ele><time>2026-04-09T09:13:59.001Z</time></trkpt><trkpt lat="43.66084522869314" lon="7.032485687380193"><ele>193.0</ele><time>2026-04-09T09:14:00.001Z</time></trkpt><trkpt lat="43.66088424901498" lon="7.0326618030746"><ele>193.0</ele><time>2026-04-09T09:14:01.001Z</time></trkpt><trkpt lat="43.660924934733906" lon="7.0328457417654064"><ele>192.5</ele><time>2026-04-09T09:14:02.001Z</time></trkpt><trkpt lat="43.660973921558856" lon="7.033025444369619"><ele>192.0</ele><time>2026-04-09T09:14:03.001Z</time></trkpt><trkpt lat="43.661012806333524" lon="7.03318747910724"><ele>191.5</ele><time>2026-04-09T09:14:04.001Z</time></trkpt><trkpt lat="43.661044760151185" lon="7.033327077393591"><ele>191.0</ele><time>2026-04-09T09:14:05.001Z</time></trkpt><trkpt lat="43.661073795005784" lon="7.033446963196931"><ele>190.83333333333331</ele><time>2026-04-09T09:14:06.001Z</time></trkpt><trkpt lat="43.661098666947886" lon="7.033559315720163"><ele>190.66666666666666</ele><time>2026-04-09T09:14:07.001Z</time></trkpt><trkpt lat="43.66112256337974" lon="7.033665443009807"><ele>190.5</ele><time>2026-04-09T09:14:08.001Z</time></trkpt><trkpt lat="43.66115009394127" lon="7.0337728562625195"><ele>190.33333333333334</ele><time>2026-04-09T09:14:09.001Z</time></trkpt><trkpt lat="43.661177673765295" lon="7.033881263788399"><ele>190.16666666666669</ele><time>2026-04-09T09:14:10.001Z</time></trkpt><trkpt lat="43.66120508448362" lon="7.033986153954266"><ele>190.0</ele><time>2026-04-09T09:14:11.001Z</time></trkpt><trkpt lat="43.66122983570002" lon="7.034078556258228"><ele>188.6</ele><time>2026-04-09T09:14:12.001Z</time></trkpt><trkpt lat="43.66125530131145" lon="7.034171611572726"><ele>187.2</ele><time>2026-04-09T09:14:13.001Z</time></trkpt><trkpt lat="43.66128382462037" lon="7.034291926035861"><ele>185.8</ele><time>2026-04-09T09:14:14.001Z</time></trkpt><trkpt lat="43.661315176084564" lon="7.034426452528792"><ele>184.4</ele><time>2026-04-09T09:14:15.001Z</time></trkpt><trkpt lat="43.66134493405057" lon="7.0345727029965825"><ele>183.0</ele><time>2026-04-09T09:14:16.001Z</time></trkpt><trkpt lat="43.66137530990579" lon="7.0347141650593965"><ele>183.0</ele><time>2026-04-09T09:14:17.001Z</time></trkpt><trkpt lat="43.66140195418899" lon="7.034859081785049"><ele>183.0</ele><time>2026-04-09T09:14:18.001Z</time></trkpt><trkpt lat="43.66142354263091" lon="7.035006996166413"><ele>183.0</ele><time>2026-04-09T09:14:19.001Z</time></trkpt><trkpt lat="43.66144642632833" lon="7.0351603574247425"><ele>183.0</ele><time>2026-04-09T09:14:20.001Z</time></trkpt><trkpt lat="43.661466387306604" lon="7.035320735059701"><ele>183.0</ele><time>2026-04-09T09:14:21.001Z</time></trkpt><trkpt lat="43.66148968760894" lon="7.03548584726523"><ele>183.0</ele><time>2026-04-09T09:14:22.001Z</time></trkpt><trkpt lat="43.66151857572699" lon="7.0356590992524755"><ele>183.0</ele><time>2026-04-09T09:14:23.001Z</time></trkpt><trkpt lat="43.66154434703639" lon="7.035828365679088"><ele>183.0</ele><time>2026-04-09T09:14:24.001Z</time></trkpt><trkpt lat="43.66157125796854" lon="7.035998840131392"><ele>183.0</ele><time>2026-04-09T09:14:25.001Z</time></trkpt><trkpt lat="43.66159873044892" lon="7.036169962978014"><ele>183.0</ele><time>2026-04-09T09:14:26.001Z</time></trkpt><trkpt lat="43.661626189443425" lon="7.0363295731750215"><ele>183.0</ele><time>2026-04-09T09:14:27.001Z</time></trkpt><trkpt lat="43.66165700638826" lon="7.036469823846786"><ele>183.0</ele><time>2026-04-09T09:14:28.001Z</time></trkpt><trkpt lat="43.6616854744444" lon="7.0365892110395745"><ele>183.0</ele><time>2026-04-09T09:14:29.001Z</time></trkpt><trkpt lat="43.66171546943224" lon="7.036686797291892"><ele>183.0</ele><time>2026-04-09T09:14:30.001Z</time></trkpt><trkpt lat="43.66174487988202" lon="7.036772486189621"><ele>182.83333333333334</ele><time>2026-04-09T09:14:31.001Z</time></trkpt><trkpt lat="43.661774464349726" lon="7.036855454440844"><ele>182.66666666666666</ele><time>2026-04-09T09:14:32.001Z</time></trkpt><trkpt lat="43.661817606671676" lon="7.036987290276898"><ele>182.5</ele><time>2026-04-09T09:14:34.001Z</time></trkpt><trkpt lat="43.661858526722646" lon="7.0371307768235525"><ele>182.33333333333331</ele><time>2026-04-09T09:14:36.001Z</time></trkpt><trkpt lat="43.66187776959994" lon="7.037220375359433"><ele>182.16666666666666</ele><time>2026-04-09T09:14:37.001Z</time></trkpt><trkpt lat="43.66189801492212" lon="7.037316325902808"><ele>182.0</ele><time>2026-04-09T09:14:38.001Z</time></trkpt><trkpt lat="43.661907170909124" lon="7.037420711833356"><ele>182.16666666666666</ele><time>2026-04-09T09:14:39.001Z</time></trkpt><trkpt lat="43.66193519564675" lon="7.037499299163021"><ele>182.33333333333331</ele><time>2026-04-09T09:14:40.001Z</time></trkpt><trkpt lat="43.66197153929622" lon="7.037572838202436"><ele>182.5</ele><time>2026-04-09T09:14:41.001Z</time></trkpt><trkpt lat="43.662013857634584" lon="7.037637660686509"><ele>182.66666666666666</ele><time>2026-04-09T09:14:42.001Z</time></trkpt><trkpt lat="43.66209826460583" lon="7.037769551149194"><ele>182.83333333333334</ele><time>2026-04-09T09:14:44.001Z</time></trkpt><trkpt lat="43.66214681331297" lon="7.037855462754248"><ele>183.0</ele><time>2026-04-09T09:14:45.001Z</time></trkpt><trkpt lat="43.66219531300416" lon="7.037941572313458"><ele>183.0</ele><time>2026-04-09T09:14:46.001Z</time></trkpt><trkpt lat="43.66224884116556" lon="7.038019289175923"><ele>183.0</ele><time>2026-04-09T09:14:47.001Z</time></trkpt><trkpt lat="43.66230781812658" lon="7.038094185426114"><ele>183.0</ele><time>2026-04-09T09:14:48.001Z</time></trkpt><trkpt lat="43.66236698060773" lon="7.038157994194813"><ele>183.0</ele><time>2026-04-09T09:14:49.001Z</time></trkpt><trkpt lat="43.6624307538474" lon="7.038208005445495"><ele>183.0</ele><time>2026-04-09T09:14:50.001Z</time></trkpt><trkpt lat="43.662488053465914" lon="7.038255280961544"><ele>183.0</ele><time>2026-04-09T09:14:51.001Z</time></trkpt><trkpt lat="43.662545176509596" lon="7.038298302020703"><ele>183.0</ele><time>2026-04-09T09:14:52.001Z</time></trkpt><trkpt lat="43.66260335772552" lon="7.0383476545367"><ele>183.0</ele><time>2026-04-09T09:14:53.001Z</time></trkpt><trkpt lat="43.66266414965482" lon="7.038400616593652"><ele>183.0</ele><time>2026-04-09T09:14:54.001Z</time></trkpt><trkpt lat="43.66276343396619" lon="7.038491161147584"><ele>183.0</ele><time>2026-04-09T09:14:56.001Z</time></trkpt><trkpt lat="43.6628626544135" lon="7.038582243589653"><ele>183.0</ele><time>2026-04-09T09:14:58.001Z</time></trkpt><trkpt lat="43.66294385679541" lon="7.038675846256747"><ele>183.0</ele><time>2026-04-09T09:15:00Z</time></trkpt><trkpt lat="43.66299397021085" lon="7.038758666861835"><ele>182.66666666666666</ele><time>2026-04-09T09:15:02Z</time></trkpt><trkpt lat="43.663041493444005" lon="7.038830901528716"><ele>182.33333333333334</ele><time>2026-04-09T09:15:04Z</time></trkpt><trkpt lat="43.66309427365978" lon="7.038902738421758"><ele>182.0</ele><time>2026-04-09T09:15:06Z</time></trkpt><trkpt lat="43.663132301671844" lon="7.038992662531543"><ele>181.66666666666669</ele><time>2026-04-09T09:15:09Z</time></trkpt><trkpt lat="43.66317426956144" lon="7.039074002175685"><ele>181.33333333333334</ele><time>2026-04-09T09:15:23Z</time></trkpt><trkpt lat="43.66324926687272" lon="7.039094874744348"><ele>181.0</ele><time>2026-04-09T09:15:26Z</time></trkpt><trkpt lat="43.663280613283156" lon="7.039216278864606"><ele>180.83333333333334</ele><time>2026-04-09T09:15:30Z</time></trkpt><trkpt lat="43.66331689026155" lon="7.03930319567128"><ele>180.66666666666669</ele><time>2026-04-09T09:15:33Z</time></trkpt><trkpt lat="43.66335797145784" lon="7.039402156214904"><ele>180.5</ele><time>2026-04-09T09:15:36Z</time></trkpt><trkpt lat="43.66340237535312" lon="7.039493738476464"><ele>180.33333333333334</ele><time>2026-04-09T09:15:38Z</time></trkpt><trkpt lat="43.663441440517644" lon="7.0395691063340085"><ele>180.16666666666666</ele><time>2026-04-09T09:15:40Z</time></trkpt><trkpt lat="43.66348494953684" lon="7.039664292316691"><ele>180.0</ele><time>2026-04-09T09:15:42Z</time></trkpt><trkpt lat="43.663530250686044" lon="7.039768136221707"><ele>180.0</ele><time>2026-04-09T09:15:44Z</time></trkpt><trkpt lat="43.66358175748223" lon="7.039865693691169"><ele>180.0</ele><time>2026-04-09T09:15:46Z</time></trkpt><trkpt lat="43.663623003861275" lon="7.03994956424538"><ele>180.0</ele><time>2026-04-09T09:15:48Z</time></trkpt><trkpt lat="43.66366159214082" lon="7.040030557843794"><ele>180.0</ele><time>2026-04-09T09:15:51Z</time></trkpt><trkpt lat="43.66371363284583" lon="7.04010654674026"><ele>180.0</ele><time>2026-04-09T09:16:45.001Z</time></trkpt><trkpt lat="43.66376227263177" lon="7.0402126288450235"><ele>180.0</ele><time>2026-04-09T09:16:48.001Z</time></trkpt><trkpt lat="43.66382163673612" lon="7.040335021676783"><ele>179.8</ele><time>2026-04-09T09:16:51.001Z</time></trkpt><trkpt lat="43.6638745573952" lon="7.040447504641971"><ele>179.6</ele><time>2026-04-09T09:16:53.001Z</time></trkpt><trkpt lat="43.66392711824729" lon="7.040557688023859"><ele>179.39999999999998</ele><time>2026-04-09T09:16:55.001Z</time></trkpt><trkpt lat="43.66398417960284" lon="7.040678186080994"><ele>179.2</ele><time>2026-04-09T09:16:57.001Z</time></trkpt><trkpt lat="43.66404375762764" lon="7.040803923983613"><ele>179.0</ele><time>2026-04-09T09:16:59.001Z</time></trkpt><trkpt lat="43.66409243751973" lon="7.040927488233643"><ele>179.0</ele><time>2026-04-09T09:17:01.001Z</time></trkpt><trkpt lat="43.664134471981946" lon="7.041015810867079"><ele>179.0</ele><time>2026-04-09T09:17:03.001Z</time></trkpt><trkpt lat="43.664167245095726" lon="7.041092195967208"><ele>179.0</ele><time>2026-04-09T09:17:05Z</time></trkpt><trkpt lat="43.66421586360498" lon="7.041192768531631"><ele>179.0</ele><time>2026-04-09T09:18:08Z</time></trkpt><trkpt lat="43.66424825862134" lon="7.041268900831393"><ele>179.0</ele><time>2026-04-09T09:18:10Z</time></trkpt><trkpt lat="43.664285132479435" lon="7.041370850225961"><ele>179.0</ele><time>2026-04-09T09:18:12Z</time></trkpt><trkpt lat="43.66434635938057" lon="7.041499313585437"><ele>179.2</ele><time>2026-04-09T09:18:14Z</time></trkpt><trkpt lat="43.66440251568338" lon="7.041632572230856"><ele>179.39999999999998</ele><time>2026-04-09T09:18:16.001Z</time></trkpt><trkpt lat="43.664459557001216" lon="7.041799323266403"><ele>179.6</ele><time>2026-04-09T09:18:18.001Z</time></trkpt><trkpt lat="43.66449061273461" lon="7.041891398754582"><ele>179.8</ele><time>2026-04-09T09:18:19.001Z</time></trkpt><trkpt lat="43.66451757659062" lon="7.0419809471654675"><ele>180.0</ele><time>2026-04-09T09:18:20.001Z</time></trkpt><trkpt lat="43.66454119953979" lon="7.042068901259666"><ele>180.0</ele><time>2026-04-09T09:18:21.001Z</time></trkpt><trkpt lat="43.66456953046875" lon="7.042154032503228"><ele>180.0</ele><time>2026-04-09T09:18:22.001Z</time></trkpt><trkpt lat="43.66459846684683" lon="7.042245935256178"><ele>180.0</ele><time>2026-04-09T09:18:23.001Z</time></trkpt><trkpt lat="43.664628442389166" lon="7.042342491234223"><ele>180.0</ele><time>2026-04-09T09:18:24.001Z</time></trkpt><trkpt lat="43.66465576368491" lon="7.042437946024075"><ele>180.0</ele><time>2026-04-09T09:18:25.001Z</time></trkpt><trkpt lat="43.6646853499697" lon="7.04253363304896"><ele>180.0</ele><time>2026-04-09T09:18:26.001Z</time></trkpt><trkpt lat="43.66471710471031" lon="7.042634936802091"><ele>180.0</ele><time>2026-04-09T09:18:27.001Z</time></trkpt><trkpt lat="43.66475082414956" lon="7.042736784695939"><ele>180.66666666666666</ele><time>2026-04-09T09:18:28.001Z</time></trkpt><trkpt lat="43.664781458849696" lon="7.0428335000468865"><ele>181.33333333333334</ele><time>2026-04-09T09:18:29.001Z</time></trkpt><trkpt lat="43.66481251442333" lon="7.042943707653318"><ele>182.0</ele><time>2026-04-09T09:18:30.001Z</time></trkpt><trkpt lat="43.66484585953037" lon="7.043054500502812"><ele>182.66666666666669</ele><time>2026-04-09T09:18:31.001Z</time></trkpt><trkpt lat="43.66487949714275" lon="7.043155327721547"><ele>183.33333333333334</ele><time>2026-04-09T09:18:32.001Z</time></trkpt><trkpt lat="43.66490160353012" lon="7.043255101884685"><ele>184.0</ele><time>2026-04-09T09:18:33.001Z</time></trkpt><trkpt lat="43.66492863020467" lon="7.043357665771877"><ele>184.79999999999998</ele><time>2026-04-09T09:18:34.001Z</time></trkpt><trkpt lat="43.664958001161686" lon="7.0434788418404475"><ele>185.6</ele><time>2026-04-09T09:18:35.001Z</time></trkpt><trkpt lat="43.66499401298523" lon="7.043605309433024"><ele>186.4</ele><time>2026-04-09T09:18:36.001Z</time></trkpt><trkpt lat="43.66502763765762" lon="7.043735144217097"><ele>187.2</ele><time>2026-04-09T09:18:37.001Z</time></trkpt><trkpt lat="43.66505265731107" lon="7.043859059369626"><ele>188.0</ele><time>2026-04-09T09:18:38.001Z</time></trkpt><trkpt lat="43.665071543032774" lon="7.043970408250159"><ele>188.0</ele><time>2026-04-09T09:18:39.001Z</time></trkpt><trkpt lat="43.66507918040606" lon="7.044097281187742"><ele>188.0</ele><time>2026-04-09T09:18:40.001Z</time></trkpt><trkpt lat="43.66508199138645" lon="7.044238738832127"><ele>188.0</ele><time>2026-04-09T09:18:41.001Z</time></trkpt><trkpt lat="43.66507768863117" lon="7.044391820616123"><ele>188.0</ele><time>2026-04-09T09:18:42.001Z</time></trkpt><trkpt lat="43.66505523908869" lon="7.0445376591164575"><ele>188.0</ele><time>2026-04-09T09:18:43.001Z</time></trkpt><trkpt lat="43.665028663259" lon="7.044676041993571"><ele>188.16666666666666</ele><time>2026-04-09T09:18:44.001Z</time></trkpt><trkpt lat="43.66499791930317" lon="7.044804890845772"><ele>188.33333333333331</ele><time>2026-04-09T09:18:45.001Z</time></trkpt><trkpt lat="43.66496936676365" lon="7.044914047128526"><ele>188.5</ele><time>2026-04-09T09:18:46.001Z</time></trkpt><trkpt lat="43.66494817328347" lon="7.045009295189079"><ele>188.66666666666666</ele><time>2026-04-09T09:18:47.001Z</time></trkpt><trkpt lat="43.664922965664346" lon="7.045101258358069"><ele>188.83333333333334</ele><time>2026-04-09T09:18:48.001Z</time></trkpt><trkpt lat="43.66489567398325" lon="7.045184503835359"><ele>189.0</ele><time>2026-04-09T09:18:49.001Z</time></trkpt><trkpt lat="43.66480990149243" lon="7.045285173044856"><ele>189.16666666666666</ele><time>2026-04-09T09:18:51.001Z</time></trkpt><trkpt lat="43.66475043900462" lon="7.045316552726283"><ele>189.33333333333334</ele><time>2026-04-09T09:18:52.001Z</time></trkpt><trkpt lat="43.66467917559544" lon="7.045422771610513"><ele>189.5</ele><time>2026-04-09T09:18:54.001Z</time></trkpt><trkpt lat="43.664697689010154" lon="7.045564289995164"><ele>189.66666666666669</ele><time>2026-04-09T09:18:56.001Z</time></trkpt><trkpt lat="43.664793455127565" lon="7.0456247268873025"><ele>189.83333333333334</ele><time>2026-04-09T09:18:58.001Z</time></trkpt><trkpt lat="43.66485598534994" lon="7.045599636203218"><ele>190.0</ele><time>2026-04-09T09:18:59.001Z</time></trkpt><trkpt lat="43.6649226140012" lon="7.045526929890832"><ele>190.0</ele><time>2026-04-09T09:19:00.001Z</time></trkpt><trkpt lat="43.66500828571075" lon="7.045467516378159"><ele>190.0</ele><time>2026-04-09T09:19:01.001Z</time></trkpt><trkpt lat="43.66509685098876" lon="7.045424920455356"><ele>190.0</ele><time>2026-04-09T09:19:02.001Z</time></trkpt><trkpt lat="43.66519390961062" lon="7.045407451723412"><ele>190.0</ele><time>2026-04-09T09:19:03.001Z</time></trkpt><trkpt lat="43.66528627399724" lon="7.045369581114958"><ele>190.0</ele><time>2026-04-09T09:19:04.001Z</time></trkpt><trkpt lat="43.66537944581212" lon="7.045309129970205"><ele>190.75</ele><time>2026-04-09T09:19:05.001Z</time></trkpt><trkpt lat="43.66548959788833" lon="7.045278340089605"><ele>191.5</ele><time>2026-04-09T09:19:06.001Z</time></trkpt><trkpt lat="43.66559994415695" lon="7.045239283006912"><ele>192.25</ele><time>2026-04-09T09:19:07.001Z</time></trkpt><trkpt lat="43.66571362133838" lon="7.045193426187999"><ele>193.0</ele><time>2026-04-09T09:19:08.001Z</time></trkpt><trkpt lat="43.665829594896536" lon="7.045149840331301"><ele>193.0</ele><time>2026-04-09T09:19:09.001Z</time></trkpt><trkpt lat="43.665938696857104" lon="7.045105921956933"><ele>193.0</ele><time>2026-04-09T09:19:10.001Z</time></trkpt><trkpt lat="43.66604394844241" lon="7.0450598606269645"><ele>193.0</ele><time>2026-04-09T09:19:11Z</time></trkpt><trkpt lat="43.666129478090696" lon="7.044978633810149"><ele>193.0</ele><time>2026-04-09T09:19:12Z</time></trkpt><trkpt lat="43.66622000086215" lon="7.04491239835419"><ele>193.0</ele><time>2026-04-09T09:19:13Z</time></trkpt><trkpt lat="43.66630405469915" lon="7.04482419294469"><ele>193.5</ele><time>2026-04-09T09:19:14Z</time></trkpt><trkpt lat="43.666400891374174" lon="7.044742348208332"><ele>194.0</ele><time>2026-04-09T09:19:15Z</time></trkpt><trkpt lat="43.66648876283173" lon="7.0446396800237"><ele>194.5</ele><time>2026-04-09T09:19:16Z</time></trkpt><trkpt lat="43.66658678136119" lon="7.044538982097865"><ele>195.0</ele><time>2026-04-09T09:19:17Z</time></trkpt><trkpt lat="43.66667895669083" lon="7.044451365303562"><ele>195.0</ele><time>2026-04-09T09:19:18Z</time></trkpt><trkpt lat="43.66676997256094" lon="7.044372925611125"><ele>195.0</ele><time>2026-04-09T09:19:19Z</time></trkpt><trkpt lat="43.666848627255966" lon="7.044299125515259"><ele>195.0</ele><time>2026-04-09T09:19:20Z</time></trkpt><trkpt lat="43.66693934767459" lon="7.044226332887353"><ele>195.0</ele><time>2026-04-09T09:19:21Z</time></trkpt><trkpt lat="43.667023529396054" lon="7.044151604302397"><ele>195.0</ele><time>2026-04-09T09:19:22Z</time></trkpt><trkpt lat="43.66710553714902" lon="7.044086577748848"><ele>195.0</ele><time>2026-04-09T09:19:23Z</time></trkpt><trkpt lat="43.667198034913476" lon="7.044038316621372"><ele>195.0</ele><time>2026-04-09T09:19:24Z</time></trkpt><trkpt lat="43.66727995988363" lon="7.043978232391792"><ele>195.0</ele><time>2026-04-09T09:19:25Z</time></trkpt><trkpt lat="43.66734857882563" lon="7.0439280811753"><ele>195.0</ele><time>2026-04-09T09:19:26Z</time></trkpt><trkpt lat="43.66741510916224" lon="7.0438788211804795"><ele>195.0</ele><time>2026-04-09T09:19:27Z</time></trkpt><trkpt lat="43.66747167971981" lon="7.0438346686776425"><ele>195.0</ele><time>2026-04-09T09:19:28Z</time></trkpt><trkpt lat="43.667545426850715" lon="7.0437669501007"><ele>195.0</ele><time>2026-04-09T09:19:30Z</time></trkpt><trkpt lat="43.66762112162613" lon="7.0437518610215255"><ele>195.0</ele><time>2026-04-09T09:19:39Z</time></trkpt><trkpt lat="43.66766673066873" lon="7.043848312586293"><ele>195.0</ele><time>2026-04-09T09:19:42Z</time></trkpt><trkpt lat="43.66768206043869" lon="7.043934298613826"><ele>195.0</ele><time>2026-04-09T09:19:51Z</time></trkpt><trkpt lat="43.66765476286518" lon="7.04383621854934"><ele>195.0</ele><time>2026-04-09T09:20:43.001Z</time></trkpt><trkpt lat="43.667617761839914" lon="7.0437412337592225"><ele>195.0</ele><time>2026-04-09T09:20:46.001Z</time></trkpt><trkpt lat="43.66751292800013" lon="7.043881983799575"><ele>195.0</ele><time>2026-04-09T09:20:51.001Z</time></trkpt><trkpt lat="43.667497029263785" lon="7.044058109641624"><ele>195.0</ele><time>2026-04-09T09:20:56.001Z</time></trkpt><trkpt lat="43.667429802726616" lon="7.044082648138467"><ele>195.0</ele><time>2026-04-09T09:21:01.001Z</time></trkpt><trkpt lat="43.667240760532714" lon="7.044089194770035"><ele>195.0</ele><time>2026-04-09T09:21:03.001Z</time></trkpt><trkpt lat="43.66719000321829" lon="7.043992048332341"><ele>195.0</ele><time>2026-04-09T09:21:04.001Z</time></trkpt><trkpt lat="43.66724838956098" lon="7.043945546247975"><ele>195.0</ele><time>2026-04-09T09:21:13.001Z</time></trkpt><trkpt lat="43.66730565518908" lon="7.04390752229141"><ele>195.0</ele><time>2026-04-09T09:22:00Z</time></trkpt><trkpt lat="43.66737004579884" lon="7.04386046155642"><ele>195.0</ele><time>2026-04-09T09:22:01Z</time></trkpt><trkpt lat="43.666655485985196" lon="7.044342156830392"><ele>195.0</ele><time>2026-04-09T09:22:16Z</time></trkpt><trkpt lat="43.66657472269343" lon="7.0444426520449825"><ele>195.0</ele><time>2026-04-09T09:22:17Z</time></trkpt><trkpt lat="43.66649503848721" lon="7.044521994837877"><ele>195.0</ele><time>2026-04-09T09:22:18Z</time></trkpt><trkpt lat="43.66658239948245" lon="7.044507557756802"><ele>195.0</ele><time>2026-04-09T09:22:28.001Z</time></trkpt><trkpt lat="43.66701183850513" lon="7.044072899536975"><ele>195.0</ele><time>2026-04-09T09:22:29.001Z</time></trkpt><trkpt lat="43.66692655941593" lon="7.0441969806893585"><ele>195.0</ele><time>2026-04-09T09:22:34.001Z</time></trkpt><trkpt lat="43.66709189738382" lon="7.044068257603618"><ele>195.0</ele><time>2026-04-09T09:22:47.001Z</time></trkpt><trkpt lat="43.66715722707955" lon="7.044017394863723"><ele>195.0</ele><time>2026-04-09T09:22:49.001Z</time></trkpt><trkpt lat="43.6672226105333" lon="7.0439664905341415"><ele>195.0</ele><time>2026-04-09T09:22:50.001Z</time></trkpt><trkpt lat="43.66732273102738" lon="7.043895042809481"><ele>195.0</ele><time>2026-04-09T09:22:52.001Z</time></trkpt><trkpt lat="43.6675912604237" lon="7.044456055928008"><ele>193.66666666666666</ele><time>2026-04-09T09:22:53.001Z</time></trkpt><trkpt lat="43.66765642269372" lon="7.04444818442858"><ele>192.33333333333331</ele><time>2026-04-09T09:22:54.001Z</time></trkpt><trkpt lat="43.66776696333886" lon="7.044418927421021"><ele>191.0</ele><time>2026-04-09T09:22:56.001Z</time></trkpt><trkpt lat="43.66739092864461" lon="7.044519474736457"><ele>191.0</ele><time>2026-04-09T09:23:01.001Z</time></trkpt><trkpt lat="43.66745102835227" lon="7.044416387607986"><ele>191.0</ele><time>2026-04-09T09:23:04.001Z</time></trkpt><trkpt lat="43.667490677171116" lon="7.044341386858515"><ele>191.0</ele><time>2026-04-09T09:23:07.001Z</time></trkpt><trkpt lat="43.667710775288846" lon="7.044130074393127"><ele>191.0</ele><time>2026-04-09T09:23:08.001Z</time></trkpt><trkpt lat="43.66759387352197" lon="7.044078855803491"><ele>192.0</ele><time>2026-04-09T09:23:15.001Z</time></trkpt><trkpt lat="43.667504629644306" lon="7.044011730416579"><ele>193.0</ele><time>2026-04-09T09:23:22.001Z</time></trkpt><trkpt lat="43.66755352148611" lon="7.043847169326628"><ele>194.0</ele><time>2026-04-09T09:23:30Z</time></trkpt><trkpt lat="43.66751975822379" lon="7.044030586550463"><ele>195.0</ele><time>2026-04-09T09:24:07.416Z</time></trkpt><trkpt lat="43.66765125495552" lon="7.0440820976475225"><ele>195.0</ele><time>2026-04-09T09:25:03.001Z</time></trkpt><trkpt lat="43.66767623980852" lon="7.043993732349645"><ele>195.0</ele><time>2026-04-09T09:26:29Z</time></trkpt><trkpt lat="43.667645348744266" lon="7.043895145416694"><ele>195.0</ele><time>2026-04-09T09:26:32Z</time></trkpt><trkpt lat="43.66761978630271" lon="7.043804119464282"><ele>195.0</ele><time>2026-04-09T09:26:35.001Z</time></trkpt><trkpt lat="43.66759987606699" lon="7.043689607063004"><ele>195.0</ele><time>2026-04-09T09:26:39.001Z</time></trkpt><trkpt lat="43.66767592650165" lon="7.043605694932805"><ele>195.0</ele><time>2026-04-09T09:26:42.001Z</time></trkpt><trkpt lat="43.6677508427203" lon="7.043515822563622"><ele>195.0</ele><time>2026-04-09T09:26:44.001Z</time></trkpt><trkpt lat="43.667820642772845" lon="7.043437419374711"><ele>195.0</ele><time>2026-04-09T09:26:46.001Z</time></trkpt><trkpt lat="43.66786231192329" lon="7.04335595722144"><ele>195.0</ele><time>2026-04-09T09:26:48.001Z</time></trkpt><trkpt lat="43.66786369765619" lon="7.043226944564906"><ele>195.0</ele><time>2026-04-09T09:26:51.001Z</time></trkpt><trkpt lat="43.667857285752625" lon="7.043135593768335"><ele>195.0</ele><time>2026-04-09T09:26:53.001Z</time></trkpt><trkpt lat="43.66788181962674" lon="7.043050778483181"><ele>195.0</ele><time>2026-04-09T09:26:55.001Z</time></trkpt><trkpt lat="43.667883668695666" lon="7.042946130746692"><ele>195.0</ele><time>2026-04-09T09:26:58.001Z</time></trkpt><trkpt lat="43.6678377589996" lon="7.042862681746281"><ele>195.0</ele><time>2026-04-09T09:27:01.001Z</time></trkpt><trkpt lat="43.66782129250845" lon="7.0427678036135255"><ele>195.0</ele><time>2026-04-09T09:27:09.001Z</time></trkpt><trkpt lat="43.667907116655385" lon="7.042733885233317"><ele>195.0</ele><time>2026-04-09T09:29:51Z</time></trkpt><trkpt lat="43.66797896213538" lon="7.04274223325529"><ele>195.0</ele><time>2026-04-09T09:29:55Z</time></trkpt><trkpt lat="43.66805010640753" lon="7.042755320567814"><ele>195.0</ele><time>2026-04-09T09:29:58Z</time></trkpt><trkpt lat="43.66812072257024" lon="7.042780993800181"><ele>195.0</ele><time>2026-04-09T09:30:02Z</time></trkpt><trkpt lat="43.668165538248594" lon="7.042901256374392"><ele>195.0</ele><time>2026-04-09T09:30:05Z</time></trkpt><trkpt lat="43.668241219957395" lon="7.042975352688056"><ele>195.0</ele><time>2026-04-09T09:30:07Z</time></trkpt><trkpt lat="43.66837804197093" lon="7.0429359942472045"><ele>195.0</ele><time>2026-04-09T09:30:09Z</time></trkpt><trkpt lat="43.668428406176105" lon="7.042858619712736"><ele>195.0</ele><time>2026-04-09T09:30:10Z</time></trkpt><trkpt lat="43.66846657227965" lon="7.042772429850235"><ele>195.0</ele><time>2026-04-09T09:30:11Z</time></trkpt><trkpt lat="43.668515901527265" lon="7.042702861390883"><ele>195.0</ele><time>2026-04-09T09:30:12Z</time></trkpt><trkpt lat="43.668573458425335" lon="7.042648135758143"><ele>195.0</ele><time>2026-04-09T09:30:13Z</time></trkpt><trkpt lat="43.66864182351395" lon="7.04259871422235"><ele>195.0</ele><time>2026-04-09T09:30:14Z</time></trkpt><trkpt lat="43.66871451570601" lon="7.042526589138699"><ele>195.0</ele><time>2026-04-09T09:30:15Z</time></trkpt><trkpt lat="43.668797300191024" lon="7.042462315990818"><ele>195.0</ele><time>2026-04-09T09:30:16Z</time></trkpt><trkpt lat="43.66886451928389" lon="7.042330349780841"><ele>195.5</ele><time>2026-04-09T09:30:17Z</time></trkpt><trkpt lat="43.6689485810299" lon="7.042212565496549"><ele>196.0</ele><time>2026-04-09T09:30:18Z</time></trkpt><trkpt lat="43.669038145985674" lon="7.042085908162019"><ele>196.5</ele><time>2026-04-09T09:30:19Z</time></trkpt><trkpt lat="43.66912642904596" lon="7.041961952132864"><ele>197.0</ele><time>2026-04-09T09:30:20Z</time></trkpt><trkpt lat="43.66922126081074" lon="7.041862904800284"><ele>197.0</ele><time>2026-04-09T09:30:21Z</time></trkpt><trkpt lat="43.66932628705854" lon="7.041781935944981"><ele>197.0</ele><time>2026-04-09T09:30:22Z</time></trkpt><trkpt lat="43.66944572513149" lon="7.041704851324955"><ele>197.0</ele><time>2026-04-09T09:30:23Z</time></trkpt><trkpt lat="43.66957734906045" lon="7.041632165252285"><ele>197.0</ele><time>2026-04-09T09:30:24Z</time></trkpt><trkpt lat="43.66971692897214" lon="7.041560228196152"><ele>198.66666666666669</ele><time>2026-04-09T09:30:25Z</time></trkpt><trkpt lat="43.66986001729821" lon="7.041498158309743"><ele>200.33333333333331</ele><time>2026-04-09T09:30:26Z</time></trkpt><trkpt lat="43.67000437181003" lon="7.041432104441962"><ele>202.0</ele><time>2026-04-09T09:30:27Z</time></trkpt><trkpt lat="43.67014507514226" lon="7.0413659672224815"><ele>202.33333333333331</ele><time>2026-04-09T09:30:28Z</time></trkpt><trkpt lat="43.67028593023228" lon="7.041286020259392"><ele>202.66666666666669</ele><time>2026-04-09T09:30:29Z</time></trkpt><trkpt lat="43.67042752588458" lon="7.041214067386586"><ele>203.0</ele><time>2026-04-09T09:30:30Z</time></trkpt><trkpt lat="43.67057165426327" lon="7.041141623070753"><ele>203.0</ele><time>2026-04-09T09:30:31Z</time></trkpt><trkpt lat="43.67071294223675" lon="7.041069973754819"><ele>203.0</ele><time>2026-04-09T09:30:32Z</time></trkpt><trkpt lat="43.67085203374097" lon="7.040999963333373"><ele>203.0</ele><time>2026-04-09T09:30:33Z</time></trkpt><trkpt lat="43.6709924154936" lon="7.040936166509534"><ele>203.0</ele><time>2026-04-09T09:30:34Z</time></trkpt><trkpt lat="43.67112843120343" lon="7.04086614987592"><ele>202.5</ele><time>2026-04-09T09:30:35Z</time></trkpt><trkpt lat="43.67126060533712" lon="7.040791825044823"><ele>202.0</ele><time>2026-04-09T09:30:36Z</time></trkpt><trkpt lat="43.67139522921648" lon="7.040707442750614"><ele>201.5</ele><time>2026-04-09T09:30:37Z</time></trkpt><trkpt lat="43.67153190083019" lon="7.040615249128245"><ele>201.0</ele><time>2026-04-09T09:30:38Z</time></trkpt><trkpt lat="43.67166394527075" lon="7.040510326001846"><ele>201.0</ele><time>2026-04-09T09:30:39Z</time></trkpt><trkpt lat="43.67179023462418" lon="7.04040045084842"><ele>201.0</ele><time>2026-04-09T09:30:40Z</time></trkpt><trkpt lat="43.67190273071302" lon="7.040287882642975"><ele>201.0</ele><time>2026-04-09T09:30:41Z</time></trkpt><trkpt lat="43.67200068303465" lon="7.040184379744596"><ele>201.0</ele><time>2026-04-09T09:30:42Z</time></trkpt><trkpt lat="43.67209390517178" lon="7.040080009608008"><ele>201.60000000000002</ele><time>2026-04-09T09:30:43Z</time></trkpt><trkpt lat="43.672177389524656" lon="7.03998099076132"><ele>202.2</ele><time>2026-04-09T09:30:44Z</time></trkpt><trkpt lat="43.67225649638498" lon="7.039888669244365"><ele>202.8</ele><time>2026-04-09T09:30:45Z</time></trkpt><trkpt lat="43.672329713809816" lon="7.039795701990442"><ele>203.39999999999998</ele><time>2026-04-09T09:30:46Z</time></trkpt><trkpt lat="43.672388774507986" lon="7.039704778411039"><ele>204.0</ele><time>2026-04-09T09:30:47Z</time></trkpt><trkpt lat="43.67245690801516" lon="7.03961182929781"><ele>205.0</ele><time>2026-04-09T09:30:48Z</time></trkpt><trkpt lat="43.67252663546411" lon="7.03950598776134"><ele>206.0</ele><time>2026-04-09T09:30:49.001Z</time></trkpt><trkpt lat="43.67262255187154" lon="7.039410855277879"><ele>207.0</ele><time>2026-04-09T09:30:50.001Z</time></trkpt><trkpt lat="43.672699200445564" lon="7.039292693083381"><ele>208.0</ele><time>2026-04-09T09:30:51.001Z</time></trkpt><trkpt lat="43.67277045263502" lon="7.039203824236862"><ele>209.0</ele><time>2026-04-09T09:30:52.001Z</time></trkpt><trkpt lat="43.67283192567535" lon="7.039135686471274"><ele>209.33333333333334</ele><time>2026-04-09T09:30:53.001Z</time></trkpt><trkpt lat="43.67288482092576" lon="7.039074475726324"><ele>209.66666666666669</ele><time>2026-04-09T09:30:54.001Z</time></trkpt><trkpt lat="43.67293639367712" lon="7.039016204563696"><ele>210.0</ele><time>2026-04-09T09:30:55.001Z</time></trkpt><trkpt lat="43.67298640420549" lon="7.038954675499512"><ele>210.33333333333331</ele><time>2026-04-09T09:30:56.001Z</time></trkpt><trkpt lat="43.6730486623431" lon="7.038890184212345"><ele>210.66666666666666</ele><time>2026-04-09T09:30:57.001Z</time></trkpt><trkpt lat="43.673121244052325" lon="7.03882065846607"><ele>211.0</ele><time>2026-04-09T09:30:58.001Z</time></trkpt><trkpt lat="43.67320111992791" lon="7.0387456694745305"><ele>211.0</ele><time>2026-04-09T09:30:59.001Z</time></trkpt><trkpt lat="43.67330074662665" lon="7.038671341312667"><ele>211.0</ele><time>2026-04-09T09:31:00.001Z</time></trkpt><trkpt lat="43.673400257598345" lon="7.038603732256505"><ele>211.0</ele><time>2026-04-09T09:31:01.001Z</time></trkpt><trkpt lat="43.67350356844286" lon="7.038540676625953"><ele>211.0</ele><time>2026-04-09T09:31:02.001Z</time></trkpt><trkpt lat="43.6736046161514" lon="7.038472288431616"><ele>211.0</ele><time>2026-04-09T09:31:03.001Z</time></trkpt><trkpt lat="43.67369659207578" lon="7.038407485609779"><ele>211.4</ele><time>2026-04-09T09:31:04.001Z</time></trkpt><trkpt lat="43.673786066390505" lon="7.038342945558674"><ele>211.8</ele><time>2026-04-09T09:31:05.001Z</time></trkpt><trkpt lat="43.67387685236921" lon="7.038272872521673"><ele>212.20000000000002</ele><time>2026-04-09T09:31:06.001Z</time></trkpt><trkpt lat="43.67397582551" lon="7.038200247261433"><ele>212.60000000000002</ele><time>2026-04-09T09:31:07.001Z</time></trkpt><trkpt lat="43.6740853884075" lon="7.038119720596245"><ele>213.0</ele><time>2026-04-09T09:31:08.001Z</time></trkpt><trkpt lat="43.674201008640765" lon="7.038040782512393"><ele>213.75</ele><time>2026-04-09T09:31:09.001Z</time></trkpt><trkpt lat="43.674316606845586" lon="7.037962705522494"><ele>214.5</ele><time>2026-04-09T09:31:10.001Z</time></trkpt><trkpt lat="43.67442604597064" lon="7.037873849030379"><ele>215.25</ele><time>2026-04-09T09:31:11.001Z</time></trkpt><trkpt lat="43.67452299730705" lon="7.037748368421209"><ele>216.0</ele><time>2026-04-09T09:31:12.001Z</time></trkpt><trkpt lat="43.67462021630366" lon="7.0376100376612"><ele>216.5</ele><time>2026-04-09T09:31:13.001Z</time></trkpt><trkpt lat="43.67471522306154" lon="7.037470481875326"><ele>217.0</ele><time>2026-04-09T09:31:14.001Z</time></trkpt><trkpt lat="43.67482781787167" lon="7.037350611583598"><ele>217.5</ele><time>2026-04-09T09:31:15.001Z</time></trkpt><trkpt lat="43.67491579485196" lon="7.037205566996251"><ele>218.0</ele><time>2026-04-09T09:31:16.001Z</time></trkpt><trkpt lat="43.67502124275646" lon="7.037081475487851"><ele>218.5</ele><time>2026-04-09T09:31:17.001Z</time></trkpt><trkpt lat="43.675127978933475" lon="7.0369612872747656"><ele>219.0</ele><time>2026-04-09T09:31:18.001Z</time></trkpt><trkpt lat="43.675230768446944" lon="7.036837162000523"><ele>219.5</ele><time>2026-04-09T09:31:19.001Z</time></trkpt><trkpt lat="43.67533557142059" lon="7.036716012454289"><ele>220.0</ele><time>2026-04-09T09:31:20.001Z</time></trkpt><trkpt lat="43.67543818173377" lon="7.036598340340021"><ele>221.25</ele><time>2026-04-09T09:31:21.001Z</time></trkpt><trkpt lat="43.67553870313872" lon="7.03647966960471"><ele>222.5</ele><time>2026-04-09T09:31:22.001Z</time></trkpt><trkpt lat="43.675638955757535" lon="7.036360881714476"><ele>223.75</ele><time>2026-04-09T09:31:23.001Z</time></trkpt><trkpt lat="43.6757354619215" lon="7.036243944900314"><ele>225.0</ele><time>2026-04-09T09:31:24.001Z</time></trkpt><trkpt lat="43.67583016657657" lon="7.036137492857591"><ele>225.0</ele><time>2026-04-09T09:31:25.001Z</time></trkpt><trkpt lat="43.675926504384385" lon="7.036037673663625"><ele>225.0</ele><time>2026-04-09T09:31:26.001Z</time></trkpt><trkpt lat="43.676031008661695" lon="7.03593854335901"><ele>225.0</ele><time>2026-04-09T09:31:27.001Z</time></trkpt><trkpt lat="43.676146780431125" lon="7.03584918739117"><ele>225.0</ele><time>2026-04-09T09:31:28.001Z</time></trkpt><trkpt lat="43.67626934462383" lon="7.035762982533114"><ele>224.5</ele><time>2026-04-09T09:31:29.001Z</time></trkpt><trkpt lat="43.67639819408424" lon="7.035691174638211"><ele>224.0</ele><time>2026-04-09T09:31:30.001Z</time></trkpt><trkpt lat="43.67653031124711" lon="7.035623540265889"><ele>223.5</ele><time>2026-04-09T09:31:31.001Z</time></trkpt><trkpt lat="43.67667655663228" lon="7.035564805390699"><ele>223.0</ele><time>2026-04-09T09:31:32.001Z</time></trkpt><trkpt lat="43.67682695223827" lon="7.035511952876381"><ele>223.5</ele><time>2026-04-09T09:31:33.001Z</time></trkpt><trkpt lat="43.67697177272483" lon="7.035457806032218"><ele>224.0</ele><time>2026-04-09T09:31:34.001Z</time></trkpt><trkpt lat="43.67710786715831" lon="7.035404533409604"><ele>224.5</ele><time>2026-04-09T09:31:35.001Z</time></trkpt><trkpt lat="43.677237378877756" lon="7.03535631667047"><ele>225.0</ele><time>2026-04-09T09:31:36.001Z</time></trkpt><trkpt lat="43.677345390370824" lon="7.035322732032352"><ele>225.0</ele><time>2026-04-09T09:31:37.001Z</time></trkpt><trkpt lat="43.67743507977018" lon="7.035295563630008"><ele>225.0</ele><time>2026-04-09T09:31:38.001Z</time></trkpt><trkpt lat="43.67752498474754" lon="7.035269499095622"><ele>225.0</ele><time>2026-04-09T09:31:39.001Z</time></trkpt><trkpt lat="43.677617765834114" lon="7.035238644396411"><ele>225.0</ele><time>2026-04-09T09:31:40.001Z</time></trkpt><trkpt lat="43.67772611582229" lon="7.035213099997172"><ele>225.0</ele><time>2026-04-09T09:31:41.001Z</time></trkpt><trkpt lat="43.67784307166378" lon="7.035179776802916"><ele>225.0</ele><time>2026-04-09T09:31:42.001Z</time></trkpt><trkpt lat="43.67796651783899" lon="7.035144487419858"><ele>225.0</ele><time>2026-04-09T09:31:43.001Z</time></trkpt><trkpt lat="43.67810093244496" lon="7.035113911494782"><ele>225.0</ele><time>2026-04-09T09:31:44.001Z</time></trkpt><trkpt lat="43.67823483625404" lon="7.035081151331783"><ele>225.0</ele><time>2026-04-09T09:31:45.001Z</time></trkpt><trkpt lat="43.678366898274064" lon="7.0350486109424"><ele>225.0</ele><time>2026-04-09T09:31:46.001Z</time></trkpt><trkpt lat="43.67850297321418" lon="7.035017851867543"><ele>225.0</ele><time>2026-04-09T09:31:47Z</time></trkpt><trkpt lat="43.67863835374473" lon="7.034984102233194"><ele>225.0</ele><time>2026-04-09T09:31:48Z</time></trkpt><trkpt lat="43.67877823098107" lon="7.034958211206622"><ele>225.0</ele><time>2026-04-09T09:31:49Z</time></trkpt><trkpt lat="43.67890512212168" lon="7.034922739058578"><ele>225.5</ele><time>2026-04-09T09:31:50Z</time></trkpt><trkpt lat="43.67903597248016" lon="7.03489363262168"><ele>226.0</ele><time>2026-04-09T09:31:51Z</time></trkpt><trkpt lat="43.67916213666742" lon="7.0348746046215185"><ele>226.5</ele><time>2026-04-09T09:31:52Z</time></trkpt><trkpt lat="43.67928972792163" lon="7.034880154737675"><ele>227.0</ele><time>2026-04-09T09:31:53Z</time></trkpt><trkpt lat="43.67941496191386" lon="7.034876627678397"><ele>227.2</ele><time>2026-04-09T09:31:54Z</time></trkpt><trkpt lat="43.67953057098653" lon="7.034859495468192"><ele>227.39999999999998</ele><time>2026-04-09T09:31:55Z</time></trkpt><trkpt lat="43.67963424123673" lon="7.034829652627477"><ele>227.60000000000002</ele><time>2026-04-09T09:31:56Z</time></trkpt><trkpt lat="43.67972411906623" lon="7.034800109080154"><ele>227.8</ele><time>2026-04-09T09:31:57Z</time></trkpt><trkpt lat="43.67979254414068" lon="7.034772619058505"><ele>228.0</ele><time>2026-04-09T09:31:58Z</time></trkpt><trkpt lat="43.679882086419326" lon="7.034742462722045"><ele>228.0</ele><time>2026-04-09T09:32:00Z</time></trkpt><trkpt lat="43.679946065024424" lon="7.034746761517257"><ele>228.0</ele><time>2026-04-09T09:32:33Z</time></trkpt><trkpt lat="43.6800200330416" lon="7.03478468814303"><ele>228.0</ele><time>2026-04-09T09:32:36Z</time></trkpt><trkpt lat="43.679972281967515" lon="7.034936282339203"><ele>228.0</ele><time>2026-04-09T09:32:38Z</time></trkpt><trkpt lat="43.679942284030425" lon="7.035018524391506"><ele>228.0</ele><time>2026-04-09T09:32:39Z</time></trkpt><trkpt lat="43.679914908955354" lon="7.035114244667546"><ele>228.0</ele><time>2026-04-09T09:32:40Z</time></trkpt><trkpt lat="43.67988170203445" lon="7.0352367603440324"><ele>227.8</ele><time>2026-04-09T09:32:41Z</time></trkpt><trkpt lat="43.67983840262307" lon="7.035367914818024"><ele>227.60000000000002</ele><time>2026-04-09T09:32:42Z</time></trkpt><trkpt lat="43.679794120952124" lon="7.035502433452542"><ele>227.39999999999998</ele><time>2026-04-09T09:32:43Z</time></trkpt><trkpt lat="43.67975428215098" lon="7.035645563450679"><ele>227.2</ele><time>2026-04-09T09:32:44Z</time></trkpt><trkpt lat="43.67970993479735" lon="7.035782522147371"><ele>227.0</ele><time>2026-04-09T09:32:45Z</time></trkpt><trkpt lat="43.6796703744358" lon="7.035920456783215"><ele>227.0</ele><time>2026-04-09T09:32:46Z</time></trkpt><trkpt lat="43.679631670388225" lon="7.036050660764444"><ele>227.0</ele><time>2026-04-09T09:32:47Z</time></trkpt><trkpt lat="43.679586810681926" lon="7.036198722913629"><ele>227.0</ele><time>2026-04-09T09:32:48Z</time></trkpt><trkpt lat="43.67953553378739" lon="7.036354876282602"><ele>227.0</ele><time>2026-04-09T09:32:49Z</time></trkpt><trkpt lat="43.67948831525564" lon="7.03650121508028"><ele>227.2</ele><time>2026-04-09T09:32:50Z</time></trkpt><trkpt lat="43.67944810421833" lon="7.036637808031229"><ele>227.39999999999998</ele><time>2026-04-09T09:32:51Z</time></trkpt><trkpt lat="43.679411065889035" lon="7.036760727876763"><ele>227.60000000000002</ele><time>2026-04-09T09:32:52Z</time></trkpt><trkpt lat="43.67937641117592" lon="7.0368787044158045"><ele>227.8</ele><time>2026-04-09T09:32:53Z</time></trkpt><trkpt lat="43.67934053516557" lon="7.036987306539284"><ele>228.0</ele><time>2026-04-09T09:32:54.001Z</time></trkpt><trkpt lat="43.679306356760584" lon="7.037084419850428"><ele>227.0</ele><time>2026-04-09T09:32:55.001Z</time></trkpt><trkpt lat="43.67927459479889" lon="7.037178174769488"><ele>226.0</ele><time>2026-04-09T09:32:56.001Z</time></trkpt><trkpt lat="43.67924523906435" lon="7.03727343502076"><ele>225.0</ele><time>2026-04-09T09:32:57.001Z</time></trkpt><trkpt lat="43.67921615442863" lon="7.037364931266968"><ele>224.0</ele><time>2026-04-09T09:32:58.001Z</time></trkpt><trkpt lat="43.67918467879571" lon="7.037456476140951"><ele>223.0</ele><time>2026-04-09T09:32:59.001Z</time></trkpt><trkpt lat="43.67915838956254" lon="7.037538859325934"><ele>222.0</ele><time>2026-04-09T09:33:00.001Z</time></trkpt><trkpt lat="43.67910982747652" lon="7.0376932524028275"><ele>222.0</ele><time>2026-04-09T09:33:02.001Z</time></trkpt><trkpt lat="43.67906129380475" lon="7.037843612972431"><ele>222.0</ele><time>2026-04-09T09:33:04.001Z</time></trkpt><trkpt lat="43.67900808949221" lon="7.038013253186367"><ele>222.0</ele><time>2026-04-09T09:33:06.001Z</time></trkpt><trkpt lat="43.67897040429552" lon="7.038115529166488"><ele>222.0</ele><time>2026-04-09T09:33:07.001Z</time></trkpt><trkpt lat="43.678930955995185" lon="7.038227411678303"><ele>222.0</ele><time>2026-04-09T09:33:08.001Z</time></trkpt><trkpt lat="43.67889198868578" lon="7.038350647818466"><ele>221.75</ele><time>2026-04-09T09:33:09.001Z</time></trkpt><trkpt lat="43.67885267531038" lon="7.038485171035046"><ele>221.5</ele><time>2026-04-09T09:33:10.001Z</time></trkpt><trkpt lat="43.67880625178295" lon="7.038632917275702"><ele>221.25</ele><time>2026-04-09T09:33:11.001Z</time></trkpt><trkpt lat="43.67876043328763" lon="7.0387860730168255"><ele>221.0</ele><time>2026-04-09T09:33:12.001Z</time></trkpt><trkpt lat="43.6787093264665" lon="7.038949459500501"><ele>221.0</ele><time>2026-04-09T09:33:13.001Z</time></trkpt><trkpt lat="43.678644898024544" lon="7.039126224899189"><ele>221.0</ele><time>2026-04-09T09:33:14.001Z</time></trkpt><trkpt lat="43.67858126538588" lon="7.039311073019352"><ele>221.0</ele><time>2026-04-09T09:33:15.001Z</time></trkpt><trkpt lat="43.67851925490662" lon="7.039501979336724"><ele>221.0</ele><time>2026-04-09T09:33:16.001Z</time></trkpt><trkpt lat="43.678453183687" lon="7.039681772588662"><ele>220.5</ele><time>2026-04-09T09:33:17.001Z</time></trkpt><trkpt lat="43.678398855507936" lon="7.039860830950855"><ele>220.0</ele><time>2026-04-09T09:33:18.001Z</time></trkpt><trkpt lat="43.67834017786795" lon="7.040036815553039"><ele>219.5</ele><time>2026-04-09T09:33:19.001Z</time></trkpt><trkpt lat="43.67828171516321" lon="7.040211076988747"><ele>219.0</ele><time>2026-04-09T09:33:20.001Z</time></trkpt><trkpt lat="43.678228920155114" lon="7.040391473093782"><ele>219.0</ele><time>2026-04-09T09:33:21.001Z</time></trkpt><trkpt lat="43.678181562161434" lon="7.04057457540172"><ele>219.0</ele><time>2026-04-09T09:33:22.001Z</time></trkpt><trkpt lat="43.67814203727859" lon="7.040769738722378"><ele>219.0</ele><time>2026-04-09T09:33:23.001Z</time></trkpt><trkpt lat="43.678109590853616" lon="7.0409669612595165"><ele>219.0</ele><time>2026-04-09T09:33:24.001Z</time></trkpt><trkpt lat="43.678086078068134" lon="7.041146156181544"><ele>218.5</ele><time>2026-04-09T09:33:25.001Z</time></trkpt><trkpt lat="43.67806369363052" lon="7.041314494082789"><ele>218.0</ele><time>2026-04-09T09:33:26.001Z</time></trkpt><trkpt lat="43.67804346011619" lon="7.041476824138845"><ele>217.5</ele><time>2026-04-09T09:33:27.001Z</time></trkpt><trkpt lat="43.67802906757954" lon="7.041640216772781"><ele>217.0</ele><time>2026-04-09T09:33:28.001Z</time></trkpt><trkpt lat="43.678046082794054" lon="7.041792953892993"><ele>217.0</ele><time>2026-04-09T09:33:29.001Z</time></trkpt><trkpt lat="43.67807960588927" lon="7.041949927957228"><ele>217.0</ele><time>2026-04-09T09:33:30.001Z</time></trkpt><trkpt lat="43.67814316962235" lon="7.042083121321718"><ele>217.0</ele><time>2026-04-09T09:33:31.001Z</time></trkpt><trkpt lat="43.67821964556749" lon="7.0421896206031995"><ele>217.0</ele><time>2026-04-09T09:33:32.001Z</time></trkpt><trkpt lat="43.67831213219396" lon="7.042278696748829"><ele>217.0</ele><time>2026-04-09T09:33:33.001Z</time></trkpt><trkpt lat="43.678423712212044" lon="7.042350096614671"><ele>217.0</ele><time>2026-04-09T09:33:34.001Z</time></trkpt><trkpt lat="43.67854443868384" lon="7.042427168118542"><ele>217.0</ele><time>2026-04-09T09:33:35.001Z</time></trkpt><trkpt lat="43.678653068291325" lon="7.042499044847391"><ele>217.0</ele><time>2026-04-09T09:33:36.001Z</time></trkpt><trkpt lat="43.67875156958478" lon="7.042574824262368"><ele>215.75</ele><time>2026-04-09T09:33:37.001Z</time></trkpt><trkpt lat="43.67883340935318" lon="7.042668454646425"><ele>214.5</ele><time>2026-04-09T09:33:38.001Z</time></trkpt><trkpt lat="43.67890874781005" lon="7.042792114095613"><ele>213.25</ele><time>2026-04-09T09:33:39.001Z</time></trkpt><trkpt lat="43.67896308071433" lon="7.0429455143406905"><ele>212.0</ele><time>2026-04-09T09:33:40.001Z</time></trkpt><trkpt lat="43.67898277592734" lon="7.043096931930273"><ele>212.0</ele><time>2026-04-09T09:33:41.001Z</time></trkpt><trkpt lat="43.678987140212016" lon="7.04326689566491"><ele>212.0</ele><time>2026-04-09T09:33:42.001Z</time></trkpt><trkpt lat="43.67895827739442" lon="7.043424198397396"><ele>212.0</ele><time>2026-04-09T09:33:43.001Z</time></trkpt><trkpt lat="43.6789039076109" lon="7.0435854587417275"><ele>212.0</ele><time>2026-04-09T09:33:44.001Z</time></trkpt><trkpt lat="43.67881897573772" lon="7.043740847262217"><ele>212.0</ele><time>2026-04-09T09:33:45.001Z</time></trkpt><trkpt lat="43.67871811497009" lon="7.043894915976558"><ele>212.0</ele><time>2026-04-09T09:33:46.001Z</time></trkpt><trkpt lat="43.6786231467518" lon="7.044045379187981"><ele>212.0</ele><time>2026-04-09T09:33:47.001Z</time></trkpt><trkpt lat="43.678536450435956" lon="7.044196250832082"><ele>212.0</ele><time>2026-04-09T09:33:48.001Z</time></trkpt><trkpt lat="43.678455098704745" lon="7.044360579705849"><ele>212.75</ele><time>2026-04-09T09:33:49.001Z</time></trkpt><trkpt lat="43.678386222637215" lon="7.0445331121969055"><ele>213.5</ele><time>2026-04-09T09:33:50.001Z</time></trkpt><trkpt lat="43.678325446490774" lon="7.044700552035325"><ele>214.25</ele><time>2026-04-09T09:33:51.001Z</time></trkpt><trkpt lat="43.67828252120357" lon="7.044874613433398"><ele>215.0</ele><time>2026-04-09T09:33:52.001Z</time></trkpt><trkpt lat="43.67825118050246" lon="7.0450606470948705"><ele>213.25</ele><time>2026-04-09T09:33:53Z</time></trkpt><trkpt lat="43.678236591346746" lon="7.0452477931813595"><ele>211.5</ele><time>2026-04-09T09:33:54Z</time></trkpt><trkpt lat="43.678236959563215" lon="7.045415422567068"><ele>209.75</ele><time>2026-04-09T09:33:55Z</time></trkpt><trkpt lat="43.678247065678015" lon="7.045572580892745"><ele>208.0</ele><time>2026-04-09T09:33:56Z</time></trkpt><trkpt lat="43.67823457856949" lon="7.045742407216125"><ele>207.5</ele><time>2026-04-09T09:33:57Z</time></trkpt><trkpt lat="43.67827476397872" lon="7.045889642771605"><ele>207.0</ele><time>2026-04-09T09:33:58Z</time></trkpt><trkpt lat="43.67833552739228" lon="7.046035112615004"><ele>206.5</ele><time>2026-04-09T09:33:59Z</time></trkpt><trkpt lat="43.678411486877046" lon="7.046163184915384"><ele>206.0</ele><time>2026-04-09T09:34:00Z</time></trkpt><trkpt lat="43.67848014923246" lon="7.046279224408006"><ele>206.0</ele><time>2026-04-09T09:34:01Z</time></trkpt><trkpt lat="43.67852722125592" lon="7.046401976371382"><ele>206.0</ele><time>2026-04-09T09:34:02Z</time></trkpt><trkpt lat="43.67854303750276" lon="7.04655152351627"><ele>206.0</ele><time>2026-04-09T09:34:03Z</time></trkpt><trkpt lat="43.67852576725228" lon="7.0467232473812516"><ele>206.0</ele><time>2026-04-09T09:34:04Z</time></trkpt><trkpt lat="43.678496125103294" lon="7.04689798709466"><ele>205.8</ele><time>2026-04-09T09:34:05Z</time></trkpt><trkpt lat="43.67847461831776" lon="7.047056859575009"><ele>205.60000000000002</ele><time>2026-04-09T09:34:06Z</time></trkpt><trkpt lat="43.67846931584024" lon="7.0472016990264095"><ele>205.4</ele><time>2026-04-09T09:34:07Z</time></trkpt><trkpt lat="43.678483824132435" lon="7.047339543532992"><ele>205.2</ele><time>2026-04-09T09:34:08Z</time></trkpt><trkpt lat="43.67853268102945" lon="7.0474775090546435"><ele>205.0</ele><time>2026-04-09T09:34:09Z</time></trkpt><trkpt lat="43.67861903442063" lon="7.047613738459146"><ele>205.0</ele><time>2026-04-09T09:34:10Z</time></trkpt><trkpt lat="43.67872570503312" lon="7.04774876379771"><ele>205.0</ele><time>2026-04-09T09:34:11Z</time></trkpt><trkpt lat="43.67882601861995" lon="7.047884379633998"><ele>205.0</ele><time>2026-04-09T09:34:12Z</time></trkpt><trkpt lat="43.67892366556471" lon="7.0480060766828485"><ele>205.0</ele><time>2026-04-09T09:34:13Z</time></trkpt><trkpt lat="43.67904424821754" lon="7.048106911334123"><ele>205.0</ele><time>2026-04-09T09:34:14Z</time></trkpt><trkpt lat="43.67917673499489" lon="7.048194747547769"><ele>205.0</ele><time>2026-04-09T09:34:15Z</time></trkpt><trkpt lat="43.67930046300618" lon="7.048288754381227"><ele>205.0</ele><time>2026-04-09T09:34:16Z</time></trkpt><trkpt lat="43.67941696733003" lon="7.048370603924658"><ele>205.0</ele><time>2026-04-09T09:34:17Z</time></trkpt><trkpt lat="43.67952438570116" lon="7.048446353096708"><ele>204.8</ele><time>2026-04-09T09:34:18Z</time></trkpt><trkpt lat="43.67962194979189" lon="7.048526604681055"><ele>204.6</ele><time>2026-04-09T09:34:19Z</time></trkpt><trkpt lat="43.67970355256571" lon="7.048607388625717"><ele>204.39999999999998</ele><time>2026-04-09T09:34:20Z</time></trkpt><trkpt lat="43.679745959978966" lon="7.048726161268304"><ele>204.2</ele><time>2026-04-09T09:34:21Z</time></trkpt><trkpt lat="43.679766835831856" lon="7.048873957522076"><ele>204.0</ele><time>2026-04-09T09:34:22Z</time></trkpt><trkpt lat="43.679789250096334" lon="7.049051810189337"><ele>202.25</ele><time>2026-04-09T09:34:23Z</time></trkpt><trkpt lat="43.679819594453775" lon="7.049245126196553"><ele>200.5</ele><time>2026-04-09T09:34:24Z</time></trkpt><trkpt lat="43.679848024703574" lon="7.049452031306361"><ele>198.75</ele><time>2026-04-09T09:34:25Z</time></trkpt><trkpt lat="43.67987601102651" lon="7.049659676780303"><ele>197.0</ele><time>2026-04-09T09:34:26Z</time></trkpt><trkpt lat="43.679903158949315" lon="7.049863945093414"><ele>197.0</ele><time>2026-04-09T09:34:27Z</time></trkpt><trkpt lat="43.679927916593456" lon="7.050067317803513"><ele>197.0</ele><time>2026-04-09T09:34:28Z</time></trkpt><trkpt lat="43.67995375850962" lon="7.050264080253575"><ele>197.0</ele><time>2026-04-09T09:34:29Z</time></trkpt><trkpt lat="43.679973860637894" lon="7.050448570792935"><ele>197.0</ele><time>2026-04-09T09:34:30Z</time></trkpt><trkpt lat="43.67999368656927" lon="7.050613632921935"><ele>197.0</ele><time>2026-04-09T09:34:31Z</time></trkpt><trkpt lat="43.68002669302153" lon="7.050773882800824"><ele>197.0</ele><time>2026-04-09T09:34:32Z</time></trkpt><trkpt lat="43.6800906498277" lon="7.050945312730203"><ele>197.0</ele><time>2026-04-09T09:34:33Z</time></trkpt><trkpt lat="43.68016866699719" lon="7.051095342598597"><ele>197.0</ele><time>2026-04-09T09:34:34Z</time></trkpt><trkpt lat="43.68024729849048" lon="7.051231859649052"><ele>196.75</ele><time>2026-04-09T09:34:35Z</time></trkpt><trkpt lat="43.6803413797874" lon="7.051351995830088"><ele>196.5</ele><time>2026-04-09T09:34:36Z</time></trkpt><trkpt lat="43.6804419768215" lon="7.051450325914909"><ele>196.25</ele><time>2026-04-09T09:34:37Z</time></trkpt><trkpt lat="43.68056388893153" lon="7.051527929097589"><ele>196.0</ele><time>2026-04-09T09:34:38Z</time></trkpt><trkpt lat="43.68070786770697" lon="7.0515913407983435"><ele>196.5</ele><time>2026-04-09T09:34:39Z</time></trkpt><trkpt lat="43.68085077124595" lon="7.051662624333626"><ele>197.0</ele><time>2026-04-09T09:34:40Z</time></trkpt><trkpt lat="43.680980254768095" lon="7.051741609585217"><ele>197.5</ele><time>2026-04-09T09:34:41Z</time></trkpt><trkpt lat="43.68108884026775" lon="7.0518227172200305"><ele>198.0</ele><time>2026-04-09T09:34:42Z</time></trkpt><trkpt lat="43.68119006873209" lon="7.051908221879742"><ele>198.75</ele><time>2026-04-09T09:34:43Z</time></trkpt><trkpt lat="43.68129168682649" lon="7.052020489866972"><ele>199.5</ele><time>2026-04-09T09:34:44Z</time></trkpt><trkpt lat="43.68138955445673" lon="7.052161452284042"><ele>200.25</ele><time>2026-04-09T09:34:45Z</time></trkpt><trkpt lat="43.68147636646199" lon="7.052309164751879"><ele>201.0</ele><time>2026-04-09T09:34:46Z</time></trkpt><trkpt lat="43.68156576580403" lon="7.052440016765957"><ele>201.25</ele><time>2026-04-09T09:34:47Z</time></trkpt><trkpt lat="43.68166960094189" lon="7.0525568406610315"><ele>201.5</ele><time>2026-04-09T09:34:48Z</time></trkpt><trkpt lat="43.68178110112291" lon="7.052663869037324"><ele>201.75</ele><time>2026-04-09T09:34:49Z</time></trkpt><trkpt lat="43.68187564754578" lon="7.052785944335394"><ele>202.0</ele><time>2026-04-09T09:34:50Z</time></trkpt><trkpt lat="43.681946742803795" lon="7.052951845754522"><ele>201.75</ele><time>2026-04-09T09:34:51Z</time></trkpt><trkpt lat="43.682032460044475" lon="7.0531040725695116"><ele>201.5</ele><time>2026-04-09T09:34:52Z</time></trkpt><trkpt lat="43.682116370389394" lon="7.0532402807085015"><ele>201.25</ele><time>2026-04-09T09:34:53Z</time></trkpt><trkpt lat="43.682206833876165" lon="7.053370878832115"><ele>201.0</ele><time>2026-04-09T09:34:54Z</time></trkpt><trkpt lat="43.68228820390579" lon="7.053500727759914"><ele>201.0</ele><time>2026-04-09T09:34:55Z</time></trkpt><trkpt lat="43.68235481702644" lon="7.05364088890857"><ele>201.0</ele><time>2026-04-09T09:34:56Z</time></trkpt><trkpt lat="43.682409657205156" lon="7.053775027431971"><ele>201.0</ele><time>2026-04-09T09:34:57Z</time></trkpt><trkpt lat="43.6824505736893" lon="7.053914911690728"><ele>201.0</ele><time>2026-04-09T09:34:58Z</time></trkpt><trkpt lat="43.68245047872907" lon="7.054091250116081"><ele>200.0</ele><time>2026-04-09T09:34:59Z</time></trkpt><trkpt lat="43.682446069345254" lon="7.054295282264832"><ele>199.0</ele><time>2026-04-09T09:35:00Z</time></trkpt><trkpt lat="43.68244715940777" lon="7.054501704529779"><ele>198.0</ele><time>2026-04-09T09:35:01Z</time></trkpt><trkpt lat="43.6824759583496" lon="7.0546949489835065"><ele>197.0</ele><time>2026-04-09T09:35:02Z</time></trkpt><trkpt lat="43.68252129797239" lon="7.054890496952966"><ele>197.66666666666669</ele><time>2026-04-09T09:35:03Z</time></trkpt><trkpt lat="43.68257756568046" lon="7.055092963506802"><ele>198.33333333333331</ele><time>2026-04-09T09:35:04Z</time></trkpt><trkpt lat="43.68262642882509" lon="7.055293892603303"><ele>199.0</ele><time>2026-04-09T09:35:05Z</time></trkpt><trkpt lat="43.6826663355717" lon="7.055484500761034"><ele>199.0</ele><time>2026-04-09T09:35:06.001Z</time></trkpt><trkpt lat="43.68270915635109" lon="7.055664068339468"><ele>199.0</ele><time>2026-04-09T09:35:07.001Z</time></trkpt><trkpt lat="43.68273324934562" lon="7.055827960531831"><ele>199.0</ele><time>2026-04-09T09:35:08.001Z</time></trkpt><trkpt lat="43.682793256166015" lon="7.055947235056166"><ele>199.0</ele><time>2026-04-09T09:35:09.001Z</time></trkpt><trkpt lat="43.68285314993613" lon="7.056054276504636"><ele>195.75</ele><time>2026-04-09T09:35:10.001Z</time></trkpt><trkpt lat="43.68294078858503" lon="7.056155978007624"><ele>192.5</ele><time>2026-04-09T09:35:11.001Z</time></trkpt><trkpt lat="43.683041220456495" lon="7.056247046701994"><ele>189.25</ele><time>2026-04-09T09:35:12.001Z</time></trkpt><trkpt lat="43.68313977036918" lon="7.056352603828254"><ele>186.0</ele><time>2026-04-09T09:35:13.001Z</time></trkpt><trkpt lat="43.6832590605355" lon="7.056433462915825"><ele>186.0</ele><time>2026-04-09T09:35:14.001Z</time></trkpt><trkpt lat="43.68335497252838" lon="7.056520753444229"><ele>186.0</ele><time>2026-04-09T09:35:15.001Z</time></trkpt><trkpt lat="43.6834433866665" lon="7.056603021490644"><ele>186.0</ele><time>2026-04-09T09:35:16.001Z</time></trkpt><trkpt lat="43.68351846176097" lon="7.056685378915753"><ele>186.0</ele><time>2026-04-09T09:35:17.001Z</time></trkpt><trkpt lat="43.683574692412435" lon="7.056802997168019"><ele>186.0</ele><time>2026-04-09T09:35:18.001Z</time></trkpt><trkpt lat="43.683607909073515" lon="7.056931828756138"><ele>186.0</ele><time>2026-04-09T09:35:19.001Z</time></trkpt><trkpt lat="43.68361910533324" lon="7.057070090621989"><ele>186.0</ele><time>2026-04-09T09:35:20.001Z</time></trkpt><trkpt lat="43.683549692488334" lon="7.0571898837447575"><ele>186.0</ele><time>2026-04-09T09:35:21.001Z</time></trkpt><trkpt lat="43.68350218172943" lon="7.057353345007396"><ele>186.0</ele><time>2026-04-09T09:35:22.001Z</time></trkpt><trkpt lat="43.683455749491415" lon="7.05753476630028"><ele>186.0</ele><time>2026-04-09T09:35:23.001Z</time></trkpt><trkpt lat="43.683401934305714" lon="7.057691006779754"><ele>186.0</ele><time>2026-04-09T09:35:24.001Z</time></trkpt><trkpt lat="43.68334052434665" lon="7.057823446742102"><ele>186.0</ele><time>2026-04-09T09:35:25.001Z</time></trkpt><trkpt lat="43.68326776557149" lon="7.057928204581025"><ele>186.0</ele><time>2026-04-09T09:35:26.001Z</time></trkpt><trkpt lat="43.68319737032531" lon="7.0580294428367605"><ele>186.0</ele><time>2026-04-09T09:35:27.001Z</time></trkpt><trkpt lat="43.68315320890591" lon="7.0581233176636635"><ele>186.0</ele><time>2026-04-09T09:35:28.001Z</time></trkpt><trkpt lat="43.68313141464362" lon="7.058220953269194"><ele>186.0</ele><time>2026-04-09T09:35:29.001Z</time></trkpt><trkpt lat="43.683135430459146" lon="7.058337999238973"><ele>186.0</ele><time>2026-04-09T09:35:30.001Z</time></trkpt><trkpt lat="43.6831766640159" lon="7.058460029935304"><ele>186.0</ele><time>2026-04-09T09:35:31.001Z</time></trkpt><trkpt lat="43.683246409481676" lon="7.0585834135240875"><ele>186.0</ele><time>2026-04-09T09:35:32.001Z</time></trkpt><trkpt lat="43.683334586837006" lon="7.05871505658922"><ele>184.25</ele><time>2026-04-09T09:35:33.001Z</time></trkpt><trkpt lat="43.68341139407746" lon="7.0588627099466565"><ele>182.5</ele><time>2026-04-09T09:35:34.001Z</time></trkpt><trkpt lat="43.68348811194203" lon="7.058995235645813"><ele>180.75</ele><time>2026-04-09T09:35:35.001Z</time></trkpt><trkpt lat="43.68356819900078" lon="7.059108640545478"><ele>179.0</ele><time>2026-04-09T09:35:36.001Z</time></trkpt><trkpt lat="43.68363518403165" lon="7.0592212786886375"><ele>175.75</ele><time>2026-04-09T09:35:37.001Z</time></trkpt><trkpt lat="43.683699167464596" lon="7.059354450119433"><ele>172.5</ele><time>2026-04-09T09:35:38.001Z</time></trkpt><trkpt lat="43.683764352919354" lon="7.0595156244941535"><ele>169.25</ele><time>2026-04-09T09:35:39.001Z</time></trkpt><trkpt lat="43.683840132120544" lon="7.059651534263009"><ele>166.0</ele><time>2026-04-09T09:35:40.001Z</time></trkpt><trkpt lat="43.68393991692385" lon="7.059772168864248"><ele>166.0</ele><time>2026-04-09T09:35:41.001Z</time></trkpt><trkpt lat="43.68405072770618" lon="7.059888372176484"><ele>166.0</ele><time>2026-04-09T09:35:42.001Z</time></trkpt><trkpt lat="43.68415324732007" lon="7.059986279579092"><ele>166.0</ele><time>2026-04-09T09:35:43.001Z</time></trkpt><trkpt lat="43.684241258852495" lon="7.060081903213669"><ele>166.0</ele><time>2026-04-09T09:35:44.001Z</time></trkpt><trkpt lat="43.68431891138145" lon="7.060177136025489"><ele>166.25</ele><time>2026-04-09T09:35:45.001Z</time></trkpt><trkpt lat="43.68437896678842" lon="7.060298229666764"><ele>166.5</ele><time>2026-04-09T09:35:46.001Z</time></trkpt><trkpt lat="43.68439902942373" lon="7.060455791417495"><ele>166.75</ele><time>2026-04-09T09:35:47.001Z</time></trkpt><trkpt lat="43.68442280227927" lon="7.060632704756601"><ele>167.0</ele><time>2026-04-09T09:35:48.001Z</time></trkpt><trkpt lat="43.684442343290115" lon="7.060830035269215"><ele>161.33333333333331</ele><time>2026-04-09T09:35:49.001Z</time></trkpt><trkpt lat="43.68447972194156" lon="7.0610409063859825"><ele>155.66666666666666</ele><time>2026-04-09T09:35:50.001Z</time></trkpt><trkpt lat="43.68450602056497" lon="7.06124194121876"><ele>150.0</ele><time>2026-04-09T09:35:51.001Z</time></trkpt><trkpt lat="43.68455581068954" lon="7.061433735858867"><ele>147.0</ele><time>2026-04-09T09:35:52.001Z</time></trkpt><trkpt lat="43.68460717425618" lon="7.061636846936572"><ele>144.0</ele><time>2026-04-09T09:35:53.001Z</time></trkpt><trkpt lat="43.68462761697481" lon="7.0618499746634456"><ele>141.0</ele><time>2026-04-09T09:35:54.001Z</time></trkpt><trkpt lat="43.68467575186485" lon="7.06205746798249"><ele>141.0</ele><time>2026-04-09T09:35:55.001Z</time></trkpt><trkpt lat="43.68469872457823" lon="7.062258078071498"><ele>141.0</ele><time>2026-04-09T09:35:56.001Z</time></trkpt><trkpt lat="43.68473166804197" lon="7.062449133926872"><ele>141.0</ele><time>2026-04-09T09:35:57.001Z</time></trkpt><trkpt lat="43.684758834458705" lon="7.0626278041345"><ele>141.0</ele><time>2026-04-09T09:35:58.001Z</time></trkpt><trkpt lat="43.68479381857053" lon="7.062800580490981"><ele>141.0</ele><time>2026-04-09T09:35:59Z</time></trkpt><trkpt lat="43.68484042556212" lon="7.0629736116464255"><ele>141.0</ele><time>2026-04-09T09:36:00Z</time></trkpt><trkpt lat="43.68490452501284" lon="7.063165381024422"><ele>141.0</ele><time>2026-04-09T09:36:01Z</time></trkpt><trkpt lat="43.68497932013206" lon="7.063354446403731"><ele>141.0</ele><time>2026-04-09T09:36:02Z</time></trkpt><trkpt lat="43.68505825743839" lon="7.063549140921665"><ele>143.33333333333334</ele><time>2026-04-09T09:36:03Z</time></trkpt><trkpt lat="43.68513700402014" lon="7.063731493391256"><ele>145.66666666666669</ele><time>2026-04-09T09:36:04Z</time></trkpt><trkpt lat="43.68522425476795" lon="7.063901765572239"><ele>148.0</ele><time>2026-04-09T09:36:05Z</time></trkpt><trkpt lat="43.685323718994226" lon="7.064076885587967"><ele>138.33333333333334</ele><time>2026-04-09T09:36:06Z</time></trkpt><trkpt lat="43.68542746809918" lon="7.064248603800946"><ele>128.66666666666666</ele><time>2026-04-09T09:36:07Z</time></trkpt><trkpt lat="43.6855282972184" lon="7.064408784901323"><ele>119.0</ele><time>2026-04-09T09:36:08Z</time></trkpt><trkpt lat="43.685624836560976" lon="7.064555747385333"><ele>119.0</ele><time>2026-04-09T09:36:09Z</time></trkpt><trkpt lat="43.68572303156352" lon="7.06469004688123"><ele>119.0</ele><time>2026-04-09T09:36:10Z</time></trkpt><trkpt lat="43.6858258995654" lon="7.064808661882551"><ele>119.0</ele><time>2026-04-09T09:36:11Z</time></trkpt><trkpt lat="43.68593037591536" lon="7.064910323246783"><ele>119.0</ele><time>2026-04-09T09:36:12Z</time></trkpt><trkpt lat="43.686037589518364" lon="7.064991834982506"><ele>116.25</ele><time>2026-04-09T09:36:13Z</time></trkpt><trkpt lat="43.686146624848384" lon="7.06505589058177"><ele>113.5</ele><time>2026-04-09T09:36:14Z</time></trkpt><trkpt lat="43.6862449169507" lon="7.065131535606317"><ele>110.75</ele><time>2026-04-09T09:36:15Z</time></trkpt><trkpt lat="43.6863310816912" lon="7.065237141637215"><ele>108.0</ele><time>2026-04-09T09:36:16Z</time></trkpt><trkpt lat="43.68638103846579" lon="7.0653923649865655"><ele>108.0</ele><time>2026-04-09T09:36:17Z</time></trkpt><trkpt lat="43.686464090365064" lon="7.065510853283595"><ele>108.0</ele><time>2026-04-09T09:36:18Z</time></trkpt><trkpt lat="43.686544043051605" lon="7.0656164947619065"><ele>108.0</ele><time>2026-04-09T09:36:19Z</time></trkpt><trkpt lat="43.68664601287757" lon="7.0656841616147625"><ele>108.0</ele><time>2026-04-09T09:36:20Z</time></trkpt><trkpt lat="43.68675553300204" lon="7.065732335726947"><ele>108.0</ele><time>2026-04-09T09:36:21Z</time></trkpt><trkpt lat="43.68685150061304" lon="7.065773735005756"><ele>108.00000000000001</ele><time>2026-04-09T09:36:22Z</time></trkpt><trkpt lat="43.68691409694558" lon="7.065874901256889"><ele>108.00000000000001</ele><time>2026-04-09T09:36:23Z</time></trkpt><trkpt lat="43.686970254305386" lon="7.06600702283344"><ele>108.0</ele><time>2026-04-09T09:36:24Z</time></trkpt><trkpt lat="43.68702695216862" lon="7.066172954126795"><ele>108.0</ele><time>2026-04-09T09:36:25Z</time></trkpt><trkpt lat="43.68708178434217" lon="7.066359347999895"><ele>107.75</ele><time>2026-04-09T09:36:26Z</time></trkpt><trkpt lat="43.68714774065246" lon="7.066534171388041"><ele>107.5</ele><time>2026-04-09T09:36:27Z</time></trkpt><trkpt lat="43.687207711104605" lon="7.066696721779039"><ele>107.25</ele><time>2026-04-09T09:36:28Z</time></trkpt><trkpt lat="43.687287078726285" lon="7.066835387134086"><ele>107.0</ele><time>2026-04-09T09:36:29Z</time></trkpt><trkpt lat="43.68737643287929" lon="7.06695975838058"><ele>107.0</ele><time>2026-04-09T09:36:30Z</time></trkpt><trkpt lat="43.68743030278921" lon="7.067097052756065"><ele>106.99999999999999</ele><time>2026-04-09T09:36:31Z</time></trkpt><trkpt lat="43.68747266153246" lon="7.0672271210389255"><ele>106.99999999999999</ele><time>2026-04-09T09:36:32Z</time></trkpt><trkpt lat="43.68750092997986" lon="7.067376620794355"><ele>107.0</ele><time>2026-04-09T09:36:33Z</time></trkpt><trkpt lat="43.68753403327633" lon="7.067513267453526"><ele>107.0</ele><time>2026-04-09T09:36:34Z</time></trkpt><trkpt lat="43.68757662177132" lon="7.0676302953144825"><ele>110.8</ele><time>2026-04-09T09:36:35Z</time></trkpt><trkpt lat="43.687663409485666" lon="7.067707059715445"><ele>114.6</ele><time>2026-04-09T09:36:36Z</time></trkpt><trkpt lat="43.68774946532396" lon="7.067766571604289"><ele>118.39999999999999</ele><time>2026-04-09T09:36:37Z</time></trkpt><trkpt lat="43.68784651747357" lon="7.067812371230217"><ele>122.19999999999999</ele><time>2026-04-09T09:36:38Z</time></trkpt><trkpt lat="43.687926741528365" lon="7.0678242413330015"><ele>126.0</ele><time>2026-04-09T09:36:39Z</time></trkpt><trkpt lat="43.687998825125185" lon="7.067801658916509"><ele>118.0</ele><time>2026-04-09T09:36:40Z</time></trkpt><trkpt lat="43.6880594847167" lon="7.067748682907166"><ele>110.0</ele><time>2026-04-09T09:36:41Z</time></trkpt><trkpt lat="43.688176479599655" lon="7.067759408505738"><ele>102.0</ele><time>2026-04-09T09:36:43Z</time></trkpt><trkpt lat="43.68822246526961" lon="7.067821138274467"><ele>94.0</ele><time>2026-04-09T09:36:44Z</time></trkpt><trkpt lat="43.68824218000866" lon="7.0679104869222575"><ele>86.0</ele><time>2026-04-09T09:36:45Z</time></trkpt><trkpt lat="43.68820537108637" lon="7.068017446357078"><ele>78.0</ele><time>2026-04-09T09:36:46Z</time></trkpt><trkpt lat="43.688172755574534" lon="7.068155558735823"><ele>80.25</ele><time>2026-04-09T09:36:47Z</time></trkpt><trkpt lat="43.688147279163054" lon="7.06831202404337"><ele>82.5</ele><time>2026-04-09T09:36:48Z</time></trkpt><trkpt lat="43.68812291617506" lon="7.068468246479896"><ele>84.75</ele><time>2026-04-09T09:36:49Z</time></trkpt><trkpt lat="43.68810344716776" lon="7.068640698296637"><ele>87.0</ele><time>2026-04-09T09:36:50Z</time></trkpt><trkpt lat="43.6880915511833" lon="7.068810955201378"><ele>87.0</ele><time>2026-04-09T09:36:51Z</time></trkpt><trkpt lat="43.688077756924905" lon="7.068965073865897"><ele>87.0</ele><time>2026-04-09T09:36:52Z</time></trkpt><trkpt lat="43.688058387346146" lon="7.069107054200589"><ele>87.0</ele><time>2026-04-09T09:36:53Z</time></trkpt><trkpt lat="43.68801025363047" lon="7.069236106436877"><ele>87.0</ele><time>2026-04-09T09:36:54Z</time></trkpt><trkpt lat="43.687955035464405" lon="7.069366893864954"><ele>87.0</ele><time>2026-04-09T09:36:55Z</time></trkpt><trkpt lat="43.68793149994044" lon="7.06950926703297"><ele>85.19999999999999</ele><time>2026-04-09T09:36:56Z</time></trkpt><trkpt lat="43.68792045478874" lon="7.069663109794909"><ele>83.39999999999999</ele><time>2026-04-09T09:36:57Z</time></trkpt><trkpt lat="43.68792621974342" lon="7.069814980105521"><ele>81.6</ele><time>2026-04-09T09:36:58Z</time></trkpt><trkpt lat="43.68793136017249" lon="7.069935844242823"><ele>79.8</ele><time>2026-04-09T09:36:59Z</time></trkpt><trkpt lat="43.687910037255676" lon="7.0700484824517"><ele>78.0</ele><time>2026-04-09T09:37:00Z</time></trkpt><trkpt lat="43.68785666190586" lon="7.0701465596429385"><ele>74.5</ele><time>2026-04-09T09:37:01Z</time></trkpt><trkpt lat="43.68777678330703" lon="7.070221059033817"><ele>71.0</ele><time>2026-04-09T09:37:02Z</time></trkpt><trkpt lat="43.68766893188721" lon="7.070278335048407"><ele>67.5</ele><time>2026-04-09T09:37:03Z</time></trkpt><trkpt lat="43.68754346016676" lon="7.0703336991694705"><ele>64.0</ele><time>2026-04-09T09:37:04Z</time></trkpt><trkpt lat="43.68740440859319" lon="7.070355938487024"><ele>73.75</ele><time>2026-04-09T09:37:05Z</time></trkpt><trkpt lat="43.68725867125946" lon="7.070390244219587"><ele>83.5</ele><time>2026-04-09T09:37:06Z</time></trkpt><trkpt lat="43.687123135695" lon="7.070453966315213"><ele>93.25</ele><time>2026-04-09T09:37:07Z</time></trkpt><trkpt lat="43.68698667196524" lon="7.0705024085662735"><ele>103.0</ele><time>2026-04-09T09:37:08.001Z</time></trkpt><trkpt lat="43.68684389610139" lon="7.0705618003785276"><ele>94.0</ele><time>2026-04-09T09:37:09.001Z</time></trkpt><trkpt lat="43.68669314831138" lon="7.070607592413663"><ele>85.0</ele><time>2026-04-09T09:37:10.001Z</time></trkpt><trkpt lat="43.68655374290607" lon="7.070691604189073"><ele>76.0</ele><time>2026-04-09T09:37:11.001Z</time></trkpt><trkpt lat="43.68641895344614" lon="7.070790767126169"><ele>76.0</ele><time>2026-04-09T09:37:12.001Z</time></trkpt><trkpt lat="43.68628052210256" lon="7.070887894530257"><ele>76.0</ele><time>2026-04-09T09:37:13.001Z</time></trkpt><trkpt lat="43.6861436244935" lon="7.070956560760071"><ele>76.0</ele><time>2026-04-09T09:37:14.001Z</time></trkpt><trkpt lat="43.68600628635826" lon="7.071023861469456"><ele>76.0</ele><time>2026-04-09T09:37:15.001Z</time></trkpt><trkpt lat="43.68587674645315" lon="7.071084898579618"><ele>81.5</ele><time>2026-04-09T09:37:16.001Z</time></trkpt><trkpt lat="43.685747377351895" lon="7.071125694214975"><ele>87.0</ele><time>2026-04-09T09:37:17.001Z</time></trkpt><trkpt lat="43.68561609257576" lon="7.071146790080493"><ele>92.5</ele><time>2026-04-09T09:37:18.001Z</time></trkpt><trkpt lat="43.68548775869965" lon="7.0711783778332915"><ele>98.0</ele><time>2026-04-09T09:37:19.001Z</time></trkpt><trkpt lat="43.68536472487495" lon="7.071238052127263"><ele>102.0</ele><time>2026-04-09T09:37:20.001Z</time></trkpt><trkpt lat="43.68523555594755" lon="7.071328354807501"><ele>106.0</ele><time>2026-04-09T09:37:21.001Z</time></trkpt><trkpt lat="43.68510765723481" lon="7.071443617425427"><ele>110.0</ele><time>2026-04-09T09:37:22.001Z</time></trkpt><trkpt lat="43.684982710958984" lon="7.071591085469889"><ele>97.66666666666666</ele><time>2026-04-09T09:37:23.001Z</time></trkpt><trkpt lat="43.684846816175074" lon="7.0716991475725175"><ele>85.33333333333333</ele><time>2026-04-09T09:37:24.001Z</time></trkpt><trkpt lat="43.684727063756576" lon="7.0718165001950775"><ele>73.0</ele><time>2026-04-09T09:37:25.001Z</time></trkpt><trkpt lat="43.68460782348811" lon="7.071933349018328"><ele>73.0</ele><time>2026-04-09T09:37:26.001Z</time></trkpt><trkpt lat="43.6844922516097" lon="7.0720466046803425"><ele>73.0</ele><time>2026-04-09T09:37:27.001Z</time></trkpt><trkpt lat="43.68437616875565" lon="7.072160360043063"><ele>73.0</ele><time>2026-04-09T09:37:28.001Z</time></trkpt><trkpt lat="43.68426613219653" lon="7.072276176162404"><ele>73.0</ele><time>2026-04-09T09:37:29.001Z</time></trkpt><trkpt lat="43.684286018764375" lon="7.07263145720538"><ele>71.0</ele><time>2026-04-09T09:37:30.001Z</time></trkpt><trkpt lat="43.68419969409235" lon="7.072767004952748"><ele>69.0</ele><time>2026-04-09T09:37:31.001Z</time></trkpt><trkpt lat="43.68408795515125" lon="7.072872139267037"><ele>67.0</ele><time>2026-04-09T09:37:32.001Z</time></trkpt><trkpt lat="43.68399877388783" lon="7.072999424961147"><ele>65.0</ele><time>2026-04-09T09:37:33.001Z</time></trkpt><trkpt lat="43.6839121548223" lon="7.073107063092267"><ele>65.0</ele><time>2026-04-09T09:37:34.001Z</time></trkpt><trkpt lat="43.68381641323906" lon="7.07319960810231"><ele>65.0</ele><time>2026-04-09T09:37:35.001Z</time></trkpt><trkpt lat="43.683713066422825" lon="7.07327550046552"><ele>65.0</ele><time>2026-04-09T09:37:36.001Z</time></trkpt><trkpt lat="43.6836198319547" lon="7.073340259734222"><ele>65.0</ele><time>2026-04-09T09:37:37.001Z</time></trkpt><trkpt lat="43.683541904641494" lon="7.073414786290272"><ele>65.0</ele><time>2026-04-09T09:37:38.001Z</time></trkpt><trkpt lat="43.683484669130074" lon="7.0735035831693835"><ele>64.0</ele><time>2026-04-09T09:37:39.001Z</time></trkpt><trkpt lat="43.68342630102959" lon="7.073615984455618"><ele>63.0</ele><time>2026-04-09T09:37:40.001Z</time></trkpt><trkpt lat="43.68337200155695" lon="7.073760001661206"><ele>62.0</ele><time>2026-04-09T09:37:41.001Z</time></trkpt><trkpt lat="43.683306807853214" lon="7.073919901170971"><ele>61.0</ele><time>2026-04-09T09:37:42.001Z</time></trkpt><trkpt lat="43.6832390003135" lon="7.074076522067976"><ele>58.5</ele><time>2026-04-09T09:37:43.001Z</time></trkpt><trkpt lat="43.68317616799435" lon="7.074231936894506"><ele>56.0</ele><time>2026-04-09T09:37:44.001Z</time></trkpt><trkpt lat="43.68312090320981" lon="7.074378689274527"><ele>53.5</ele><time>2026-04-09T09:37:45.001Z</time></trkpt><trkpt lat="43.683048950717605" lon="7.0745144365158605"><ele>51.0</ele><time>2026-04-09T09:37:46.001Z</time></trkpt><trkpt lat="43.682967507722424" lon="7.0746401108039425"><ele>51.0</ele><time>2026-04-09T09:37:47.001Z</time></trkpt><trkpt lat="43.682880678679794" lon="7.074752500679798"><ele>51.0</ele><time>2026-04-09T09:37:48.001Z</time></trkpt><trkpt lat="43.68279865880215" lon="7.074874567000709"><ele>51.0</ele><time>2026-04-09T09:37:49.001Z</time></trkpt><trkpt lat="43.682721384109406" lon="7.075007650182304"><ele>51.0</ele><time>2026-04-09T09:37:50.001Z</time></trkpt><trkpt lat="43.68264604701605" lon="7.075151331824217"><ele>50.75</ele><time>2026-04-09T09:37:51.001Z</time></trkpt><trkpt lat="43.6825760893737" lon="7.0753036283212305"><ele>50.5</ele><time>2026-04-09T09:37:52.001Z</time></trkpt><trkpt lat="43.682505401849085" lon="7.075460601801924"><ele>50.25</ele><time>2026-04-09T09:37:53.001Z</time></trkpt><trkpt lat="43.68243260988638" lon="7.075619379495706"><ele>50.0</ele><time>2026-04-09T09:37:54.001Z</time></trkpt><trkpt lat="43.682359037675255" lon="7.075786452180212"><ele>50.0</ele><time>2026-04-09T09:37:55.001Z</time></trkpt><trkpt lat="43.682289072669086" lon="7.075947074410485"><ele>50.0</ele><time>2026-04-09T09:37:56.001Z</time></trkpt><trkpt lat="43.682214410575114" lon="7.076089937083252"><ele>50.0</ele><time>2026-04-09T09:37:57.001Z</time></trkpt><trkpt lat="43.68213481498983" lon="7.076214482557726"><ele>50.0</ele><time>2026-04-09T09:37:58.001Z</time></trkpt><trkpt lat="43.68204874851581" lon="7.076344244676942"><ele>50.0</ele><time>2026-04-09T09:37:59.001Z</time></trkpt><trkpt lat="43.681956125187384" lon="7.076469812111726"><ele>50.0</ele><time>2026-04-09T09:38:00.001Z</time></trkpt><trkpt lat="43.68185638545309" lon="7.076584661680113"><ele>50.0</ele><time>2026-04-09T09:38:01.001Z</time></trkpt><trkpt lat="43.68174770873362" lon="7.0766969232000925"><ele>50.0</ele><time>2026-04-09T09:38:02.001Z</time></trkpt><trkpt lat="43.681634820339696" lon="7.076801642693521"><ele>51.25</ele><time>2026-04-09T09:38:03.001Z</time></trkpt><trkpt lat="43.68151684773353" lon="7.07690228877549"><ele>52.5</ele><time>2026-04-09T09:38:04.001Z</time></trkpt><trkpt lat="43.681396441177164" lon="7.077005751047708"><ele>53.75</ele><time>2026-04-09T09:38:05Z</time></trkpt><trkpt lat="43.68128396945525" lon="7.077106118927691"><ele>55.0</ele><time>2026-04-09T09:38:06Z</time></trkpt><trkpt lat="43.681178604619724" lon="7.077204930458552"><ele>58.0</ele><time>2026-04-09T09:38:07Z</time></trkpt><trkpt lat="43.68107658909422" lon="7.0773116774737685"><ele>61.0</ele><time>2026-04-09T09:38:08Z</time></trkpt><trkpt lat="43.68098278694558" lon="7.077424770970754"><ele>64.0</ele><time>2026-04-09T09:38:09Z</time></trkpt><trkpt lat="43.680899910638765" lon="7.07755276454667"><ele>67.0</ele><time>2026-04-09T09:38:10Z</time></trkpt><trkpt lat="43.68082248975072" lon="7.077693860074643"><ele>67.0</ele><time>2026-04-09T09:38:11Z</time></trkpt><trkpt lat="43.680755312263294" lon="7.077847738884501"><ele>67.0</ele><time>2026-04-09T09:38:12Z</time></trkpt><trkpt lat="43.68069350804582" lon="7.078007551492478"><ele>67.0</ele><time>2026-04-09T09:38:13Z</time></trkpt><trkpt lat="43.68063187337924" lon="7.078169904602483"><ele>67.0</ele><time>2026-04-09T09:38:14Z</time></trkpt><trkpt lat="43.680571597706326" lon="7.0783274268778165"><ele>60.75</ele><time>2026-04-09T09:38:15Z</time></trkpt><trkpt lat="43.68050907935454" lon="7.0784835473756385"><ele>54.5</ele><time>2026-04-09T09:38:16Z</time></trkpt><trkpt lat="43.68044489529715" lon="7.078631436863673"><ele>48.25</ele><time>2026-04-09T09:38:17Z</time></trkpt><trkpt lat="43.680381520605444" lon="7.078771721429792"><ele>42.0</ele><time>2026-04-09T09:38:18Z</time></trkpt><trkpt lat="43.68032366490817" lon="7.078907540704555"><ele>44.0</ele><time>2026-04-09T09:38:19Z</time></trkpt><trkpt lat="43.680257765219835" lon="7.07904229238345"><ele>46.0</ele><time>2026-04-09T09:38:20Z</time></trkpt><trkpt lat="43.680196834564356" lon="7.079178503086872"><ele>48.0</ele><time>2026-04-09T09:38:21Z</time></trkpt><trkpt lat="43.680139622194694" lon="7.079303830021795"><ele>50.0</ele><time>2026-04-09T09:38:22Z</time></trkpt><trkpt lat="43.68010003499891" lon="7.079447352325226"><ele>50.0</ele><time>2026-04-09T09:38:23Z</time></trkpt><trkpt lat="43.68008610412285" lon="7.079607189347923"><ele>50.0</ele><time>2026-04-09T09:38:24Z</time></trkpt><trkpt lat="43.68009615255293" lon="7.079778480457785"><ele>50.0</ele><time>2026-04-09T09:38:25Z</time></trkpt><trkpt lat="43.680125256458325" lon="7.0799559835320816"><ele>50.0</ele><time>2026-04-09T09:38:26Z</time></trkpt><trkpt lat="43.68014930971244" lon="7.08013022201379"><ele>50.2</ele><time>2026-04-09T09:38:27Z</time></trkpt><trkpt lat="43.68017333637988" lon="7.080284852294944"><ele>50.4</ele><time>2026-04-09T09:38:28Z</time></trkpt><trkpt lat="43.6801865387068" lon="7.080431568498373"><ele>50.599999999999994</ele><time>2026-04-09T09:38:29Z</time></trkpt><trkpt lat="43.68019862929518" lon="7.0805772693001625"><ele>50.8</ele><time>2026-04-09T09:38:30Z</time></trkpt><trkpt lat="43.68020397347217" lon="7.080714374061769"><ele>51.0</ele><time>2026-04-09T09:38:31Z</time></trkpt><trkpt lat="43.68018433421151" lon="7.080828559245776"><ele>50.166666666666664</ele><time>2026-04-09T09:38:32Z</time></trkpt><trkpt lat="43.680195327832095" lon="7.0809467893196105"><ele>49.333333333333336</ele><time>2026-04-09T09:38:33Z</time></trkpt><trkpt lat="43.6801885612817" lon="7.081056064578435"><ele>48.5</ele><time>2026-04-09T09:38:34Z</time></trkpt><trkpt lat="43.68018273735939" lon="7.081161829782406"><ele>47.66666666666667</ele><time>2026-04-09T09:38:35Z</time></trkpt><trkpt lat="43.68017881309489" lon="7.0812739128937086"><ele>46.833333333333336</ele><time>2026-04-09T09:38:36Z</time></trkpt><trkpt lat="43.68017230067182" lon="7.081396547309884"><ele>46.0</ele><time>2026-04-09T09:38:37Z</time></trkpt><trkpt lat="43.680164692165654" lon="7.0815267766248144"><ele>45.16666666666667</ele><time>2026-04-09T09:38:38Z</time></trkpt><trkpt lat="43.680157737887725" lon="7.081653468779429"><ele>44.333333333333336</ele><time>2026-04-09T09:38:39Z</time></trkpt><trkpt lat="43.68015042277981" lon="7.08177401285865"><ele>43.5</ele><time>2026-04-09T09:38:40Z</time></trkpt><trkpt lat="43.680146901976734" lon="7.081881764827243"><ele>42.666666666666664</ele><time>2026-04-09T09:38:41Z</time></trkpt><trkpt lat="43.6801448348592" lon="7.0819842500299535"><ele>41.83333333333333</ele><time>2026-04-09T09:38:42Z</time></trkpt><trkpt lat="43.68015185073697" lon="7.082087734984045"><ele>41.0</ele><time>2026-04-09T09:38:43Z</time></trkpt><trkpt lat="43.680178682523085" lon="7.082202357551489"><ele>41.0</ele><time>2026-04-09T09:38:44Z</time></trkpt><trkpt lat="43.68022906426676" lon="7.082316901618499"><ele>41.0</ele><time>2026-04-09T09:38:45Z</time></trkpt><trkpt lat="43.6802935996638" lon="7.08242968035431"><ele>41.0</ele><time>2026-04-09T09:38:46Z</time></trkpt><trkpt lat="43.68036412686197" lon="7.082539999248075"><ele>41.0</ele><time>2026-04-09T09:38:47Z</time></trkpt><trkpt lat="43.68042486741694" lon="7.082637660459525"><ele>41.0</ele><time>2026-04-09T09:38:48Z</time></trkpt><trkpt lat="43.68048545584434" lon="7.082740387674605"><ele>41.8</ele><time>2026-04-09T09:38:49Z</time></trkpt><trkpt lat="43.68055845190053" lon="7.082818604722263"><ele>42.599999999999994</ele><time>2026-04-09T09:38:50Z</time></trkpt><trkpt lat="43.680631705909356" lon="7.08290090643294"><ele>43.4</ele><time>2026-04-09T09:38:51Z</time></trkpt><trkpt lat="43.680730168088644" lon="7.082964499051735"><ele>44.2</ele><time>2026-04-09T09:38:52Z</time></trkpt><trkpt lat="43.680825895450276" lon="7.083006608589559"><ele>45.0</ele><time>2026-04-09T09:38:53Z</time></trkpt><trkpt lat="43.68090844131525" lon="7.083042541674277"><ele>45.0</ele><time>2026-04-09T09:38:54Z</time></trkpt><trkpt lat="43.68098018343402" lon="7.083072922053619"><ele>45.0</ele><time>2026-04-09T09:38:55Z</time></trkpt><trkpt lat="43.681055323538395" lon="7.083084899353853"><ele>45.0</ele><time>2026-04-09T09:38:56Z</time></trkpt><trkpt lat="43.681142778031095" lon="7.083123535112813"><ele>45.0</ele><time>2026-04-09T09:38:57Z</time></trkpt><trkpt lat="43.681234878615335" lon="7.083164748279701"><ele>45.0</ele><time>2026-04-09T09:38:58Z</time></trkpt><trkpt lat="43.681328421416396" lon="7.08321086798676"><ele>45.0</ele><time>2026-04-09T09:38:59Z</time></trkpt><trkpt lat="43.681423004469934" lon="7.083245339451866"><ele>44.0</ele><time>2026-04-09T09:39:00Z</time></trkpt><trkpt lat="43.68151892526981" lon="7.083284729556537"><ele>43.0</ele><time>2026-04-09T09:39:01Z</time></trkpt><trkpt lat="43.68161829593062" lon="7.083345697589328"><ele>42.0</ele><time>2026-04-09T09:39:02Z</time></trkpt><trkpt lat="43.68170595246037" lon="7.083413902239765"><ele>41.0</ele><time>2026-04-09T09:39:03Z</time></trkpt><trkpt lat="43.68178274393243" lon="7.083512060778437"><ele>40.0</ele><time>2026-04-09T09:39:04Z</time></trkpt><trkpt lat="43.6818538607794" lon="7.083623696522035"><ele>40.0</ele><time>2026-04-09T09:39:05Z</time></trkpt><trkpt lat="43.6819208438405" lon="7.083747937566195"><ele>40.0</ele><time>2026-04-09T09:39:06Z</time></trkpt><trkpt lat="43.6819858367344" lon="7.083881661092981"><ele>40.0</ele><time>2026-04-09T09:39:07Z</time></trkpt><trkpt lat="43.68204808702624" lon="7.084023031805584"><ele>40.0</ele><time>2026-04-09T09:39:08Z</time></trkpt><trkpt lat="43.68210356999747" lon="7.084158857387288"><ele>41.2</ele><time>2026-04-09T09:39:09Z</time></trkpt><trkpt lat="43.682155994330856" lon="7.084291207303924"><ele>42.4</ele><time>2026-04-09T09:39:10Z</time></trkpt><trkpt lat="43.6822086633194" lon="7.084423830446354"><ele>43.599999999999994</ele><time>2026-04-09T09:39:11Z</time></trkpt><trkpt lat="43.682261759412526" lon="7.08455788247085"><ele>44.8</ele><time>2026-04-09T09:39:12Z</time></trkpt><trkpt lat="43.68230110819416" lon="7.0846959021869385"><ele>46.0</ele><time>2026-04-09T09:39:13Z</time></trkpt><trkpt lat="43.68232458433449" lon="7.084843469774542"><ele>44.8</ele><time>2026-04-09T09:39:14Z</time></trkpt><trkpt lat="43.682326243014174" lon="7.085003914994147"><ele>43.599999999999994</ele><time>2026-04-09T09:39:15Z</time></trkpt><trkpt lat="43.682313851616904" lon="7.085156248630988"><ele>42.4</ele><time>2026-04-09T09:39:16Z</time></trkpt><trkpt lat="43.682302548974214" lon="7.085287236953862"><ele>41.2</ele><time>2026-04-09T09:39:17.001Z</time></trkpt><trkpt lat="43.682295076433" lon="7.085405622279401"><ele>40.0</ele><time>2026-04-09T09:39:18.001Z</time></trkpt><trkpt lat="43.68228830387744" lon="7.085518543348886"><ele>40.0</ele><time>2026-04-09T09:39:19.001Z</time></trkpt><trkpt lat="43.6822818041584" lon="7.0856138682476475"><ele>40.0</ele><time>2026-04-09T09:39:20.001Z</time></trkpt><trkpt lat="43.68229125750127" lon="7.085766727816086"><ele>40.0</ele><time>2026-04-09T09:39:22.001Z</time></trkpt><trkpt lat="43.682307967339625" lon="7.085923093665414"><ele>40.0</ele><time>2026-04-09T09:39:32.001Z</time></trkpt><trkpt lat="43.68238136656061" lon="7.08607297538008"><ele>40.0</ele><time>2026-04-09T09:39:34.001Z</time></trkpt><trkpt lat="43.68246284235525" lon="7.086199950114031"><ele>39.5</ele><time>2026-04-09T09:39:36.001Z</time></trkpt><trkpt lat="43.6825174973992" lon="7.086281061137626"><ele>39.0</ele><time>2026-04-09T09:39:37.001Z</time></trkpt><trkpt lat="43.682571358585136" lon="7.08636142281602"><ele>38.5</ele><time>2026-04-09T09:39:38.001Z</time></trkpt><trkpt lat="43.6826293341591" lon="7.086447923215402"><ele>38.0</ele><time>2026-04-09T09:39:39.001Z</time></trkpt><trkpt lat="43.68269236768984" lon="7.086541970157189"><ele>37.5</ele><time>2026-04-09T09:39:40.001Z</time></trkpt><trkpt lat="43.682772143902476" lon="7.086633040460249"><ele>37.0</ele><time>2026-04-09T09:39:41.001Z</time></trkpt><trkpt lat="43.68283687305288" lon="7.086733679371374"><ele>38.6</ele><time>2026-04-09T09:39:42.001Z</time></trkpt><trkpt lat="43.68290226043444" lon="7.086839668833158"><ele>40.2</ele><time>2026-04-09T09:39:43.001Z</time></trkpt><trkpt lat="43.6829658854422" lon="7.086952852064642"><ele>41.8</ele><time>2026-04-09T09:39:44.001Z</time></trkpt><trkpt lat="43.68302094598864" lon="7.087066652381022"><ele>43.4</ele><time>2026-04-09T09:39:45.001Z</time></trkpt><trkpt lat="43.68307352325542" lon="7.087192861727358"><ele>45.0</ele><time>2026-04-09T09:39:46.001Z</time></trkpt><trkpt lat="43.683123886092964" lon="7.087323617620956"><ele>45.2</ele><time>2026-04-09T09:39:47.001Z</time></trkpt><trkpt lat="43.68316754119263" lon="7.087455349795657"><ele>45.4</ele><time>2026-04-09T09:39:48.001Z</time></trkpt><trkpt lat="43.68320176653042" lon="7.0875953914783745"><ele>45.599999999999994</ele><time>2026-04-09T09:39:49.001Z</time></trkpt><trkpt lat="43.683224086895855" lon="7.087736269668074"><ele>45.8</ele><time>2026-04-09T09:39:50.001Z</time></trkpt><trkpt lat="43.68322999853134" lon="7.087869938443384"><ele>46.0</ele><time>2026-04-09T09:39:51.001Z</time></trkpt><trkpt lat="43.683223373988774" lon="7.088012587893666"><ele>46.0</ele><time>2026-04-09T09:39:52.001Z</time></trkpt><trkpt lat="43.68320937989574" lon="7.088169926112701"><ele>46.0</ele><time>2026-04-09T09:39:53.001Z</time></trkpt><trkpt lat="43.683195005004094" lon="7.08832468041854"><ele>46.0</ele><time>2026-04-09T09:39:54.001Z</time></trkpt><trkpt lat="43.68317407366185" lon="7.088465461020125"><ele>46.0</ele><time>2026-04-09T09:39:55.001Z</time></trkpt><trkpt lat="43.68313978821795" lon="7.088608110869078"><ele>46.0</ele><time>2026-04-09T09:39:56.001Z</time></trkpt><trkpt lat="43.683086103312995" lon="7.088762345952757"><ele>46.75</ele><time>2026-04-09T09:39:57.001Z</time></trkpt><trkpt lat="43.68302059876369" lon="7.088897430556269"><ele>47.5</ele><time>2026-04-09T09:39:58.001Z</time></trkpt><trkpt lat="43.68295166357139" lon="7.089041754508099"><ele>48.25</ele><time>2026-04-09T09:39:59.001Z</time></trkpt><trkpt lat="43.682881095071195" lon="7.089185350219955"><ele>49.0</ele><time>2026-04-09T09:40:00.001Z</time></trkpt><trkpt lat="43.682816916013415" lon="7.089310446386027"><ele>49.33333333333333</ele><time>2026-04-09T09:40:01.001Z</time></trkpt><trkpt lat="43.68276948998767" lon="7.089431621154834"><ele>49.666666666666664</ele><time>2026-04-09T09:40:02.001Z</time></trkpt><trkpt lat="43.682726872131006" lon="7.089540115556397"><ele>50.0</ele><time>2026-04-09T09:40:03.001Z</time></trkpt><trkpt lat="43.68269067038182" lon="7.08963792432334"><ele>50.33333333333333</ele><time>2026-04-09T09:40:04.001Z</time></trkpt><trkpt lat="43.6826640728664" lon="7.089729377507847"><ele>50.666666666666664</ele><time>2026-04-09T09:40:05.001Z</time></trkpt><trkpt lat="43.682651232918644" lon="7.089818261385802"><ele>51.0</ele><time>2026-04-09T09:40:06.001Z</time></trkpt><trkpt lat="43.682642723983314" lon="7.089905922757794"><ele>48.833333333333336</ele><time>2026-04-09T09:40:07.001Z</time></trkpt><trkpt lat="43.68264027546788" lon="7.089993022236112"><ele>46.666666666666664</ele><time>2026-04-09T09:40:08.001Z</time></trkpt><trkpt lat="43.68264966802188" lon="7.090137084463165"><ele>44.5</ele><time>2026-04-09T09:40:10.001Z</time></trkpt><trkpt lat="43.682671956792355" lon="7.090257038452319"><ele>42.33333333333333</ele><time>2026-04-09T09:40:13Z</time></trkpt><trkpt lat="43.68269366245004" lon="7.090346499098139"><ele>40.166666666666664</ele><time>2026-04-09T09:40:15Z</time></trkpt><trkpt lat="43.682713264322416" lon="7.090432227814899"><ele>38.0</ele><time>2026-04-09T09:40:17Z</time></trkpt><trkpt lat="43.68274618751973" lon="7.090553714196862"><ele>39.166666666666664</ele><time>2026-04-09T09:40:19Z</time></trkpt><trkpt lat="43.68277590422451" lon="7.090684032105004"><ele>40.33333333333333</ele><time>2026-04-09T09:40:21Z</time></trkpt><trkpt lat="43.68285195439201" lon="7.090816497576593"><ele>41.5</ele><time>2026-04-09T09:40:23Z</time></trkpt><trkpt lat="43.68289022485683" lon="7.090901426924208"><ele>42.666666666666664</ele><time>2026-04-09T09:40:24Z</time></trkpt><trkpt lat="43.68292972815147" lon="7.090991199987255"><ele>43.833333333333336</ele><time>2026-04-09T09:40:25Z</time></trkpt><trkpt lat="43.68296597766209" lon="7.091079636709298"><ele>45.0</ele><time>2026-04-09T09:40:26Z</time></trkpt><trkpt lat="43.68301450437563" lon="7.091183849740564"><ele>45.0</ele><time>2026-04-09T09:40:27Z</time></trkpt><trkpt lat="43.68305087169911" lon="7.091307346655505"><ele>45.0</ele><time>2026-04-09T09:40:28Z</time></trkpt><trkpt lat="43.68309982167942" lon="7.091429508361966"><ele>45.0</ele><time>2026-04-09T09:40:29Z</time></trkpt><trkpt lat="43.68314833634531" lon="7.0915520157825345"><ele>45.0</ele><time>2026-04-09T09:40:30Z</time></trkpt><trkpt lat="43.683195534913445" lon="7.091671503915215"><ele>45.0</ele><time>2026-04-09T09:40:31Z</time></trkpt><trkpt lat="43.68324047020252" lon="7.091786850255251"><ele>45.4</ele><time>2026-04-09T09:40:32Z</time></trkpt><trkpt lat="43.68328670155938" lon="7.091905523502461"><ele>45.8</ele><time>2026-04-09T09:40:33Z</time></trkpt><trkpt lat="43.6833341529331" lon="7.092027328475149"><ele>46.2</ele><time>2026-04-09T09:40:34Z</time></trkpt><trkpt lat="43.68337924180235" lon="7.092142316356242"><ele>46.6</ele><time>2026-04-09T09:40:35Z</time></trkpt><trkpt lat="43.68342055096844" lon="7.0922469534691475"><ele>47.0</ele><time>2026-04-09T09:40:36Z</time></trkpt><trkpt lat="43.68346412448564" lon="7.0923573262395205"><ele>48.0</ele><time>2026-04-09T09:40:37Z</time></trkpt><trkpt lat="43.683510436244376" lon="7.092474635045068"><ele>49.0</ele><time>2026-04-09T09:40:38Z</time></trkpt><trkpt lat="43.683558908210614" lon="7.092596150116174"><ele>50.0</ele><time>2026-04-09T09:40:39Z</time></trkpt><trkpt lat="43.68361955637779" lon="7.0927099850195265"><ele>51.0</ele><time>2026-04-09T09:40:40Z</time></trkpt><trkpt lat="43.68365948710013" lon="7.092830942376744"><ele>52.0</ele><time>2026-04-09T09:40:41Z</time></trkpt><trkpt lat="43.6837041929666" lon="7.092936808239279"><ele>52.0</ele><time>2026-04-09T09:40:42Z</time></trkpt><trkpt lat="43.6837487599443" lon="7.093050856938713"><ele>52.0</ele><time>2026-04-09T09:40:43Z</time></trkpt><trkpt lat="43.683797249724115" lon="7.093165595912432"><ele>52.0</ele><time>2026-04-09T09:40:44Z</time></trkpt><trkpt lat="43.683844961765445" lon="7.093282296691353"><ele>52.0</ele><time>2026-04-09T09:40:45Z</time></trkpt><trkpt lat="43.68390574187415" lon="7.093391656020227"><ele>52.0</ele><time>2026-04-09T09:40:46Z</time></trkpt><trkpt lat="43.683960050344105" lon="7.09351555451605"><ele>52.0</ele><time>2026-04-09T09:40:47Z</time></trkpt><trkpt lat="43.68404514791277" lon="7.093618541622497"><ele>52.0</ele><time>2026-04-09T09:40:48Z</time></trkpt><trkpt lat="43.68411365768137" lon="7.093738456997884"><ele>52.0</ele><time>2026-04-09T09:40:49Z</time></trkpt><trkpt lat="43.68417136664657" lon="7.0938457681871485"><ele>52.0</ele><time>2026-04-09T09:40:50Z</time></trkpt><trkpt lat="43.68423235331884" lon="7.093943808348368"><ele>52.0</ele><time>2026-04-09T09:40:51Z</time></trkpt><trkpt lat="43.68428466793851" lon="7.094043133531836"><ele>52.2</ele><time>2026-04-09T09:40:52Z</time></trkpt><trkpt lat="43.684315265197114" lon="7.094156154274162"><ele>52.400000000000006</ele><time>2026-04-09T09:40:53Z</time></trkpt><trkpt lat="43.684320494285224" lon="7.094289479467062"><ele>52.599999999999994</ele><time>2026-04-09T09:40:54Z</time></trkpt><trkpt lat="43.684315872296544" lon="7.094427456889735"><ele>52.8</ele><time>2026-04-09T09:40:55Z</time></trkpt><trkpt lat="43.68430905429862" lon="7.094574263248334"><ele>53.0</ele><time>2026-04-09T09:40:56Z</time></trkpt><trkpt lat="43.684301287739366" lon="7.094719723750262"><ele>53.0</ele><time>2026-04-09T09:40:57Z</time></trkpt><trkpt lat="43.684300838034304" lon="7.094863754613058"><ele>53.0</ele><time>2026-04-09T09:40:58Z</time></trkpt><trkpt lat="43.68429909329295" lon="7.095007885132633"><ele>53.0</ele><time>2026-04-09T09:40:59Z</time></trkpt><trkpt lat="43.684329572324515" lon="7.095146150255908"><ele>53.0</ele><time>2026-04-09T09:41:00Z</time></trkpt><trkpt lat="43.684391729273074" lon="7.095268064341627"><ele>53.0</ele><time>2026-04-09T09:41:01Z</time></trkpt><trkpt lat="43.6844564086816" lon="7.09539069481374"><ele>56.4</ele><time>2026-04-09T09:41:02Z</time></trkpt><trkpt lat="43.68453321371209" lon="7.095513699190241"><ele>59.8</ele><time>2026-04-09T09:41:03Z</time></trkpt><trkpt lat="43.68460863664893" lon="7.095630007756608"><ele>63.2</ele><time>2026-04-09T09:41:04Z</time></trkpt><trkpt lat="43.68468257424183" lon="7.09573884195023"><ele>66.6</ele><time>2026-04-09T09:41:05Z</time></trkpt><trkpt lat="43.68475177609185" lon="7.095849223675983"><ele>70.0</ele><time>2026-04-09T09:41:06Z</time></trkpt><trkpt lat="43.68482484959236" lon="7.09595661162086"><ele>70.0</ele><time>2026-04-09T09:41:07Z</time></trkpt><trkpt lat="43.68489885002597" lon="7.0960690213138085"><ele>70.0</ele><time>2026-04-09T09:41:08Z</time></trkpt><trkpt lat="43.68497575900778" lon="7.096190364879089"><ele>70.0</ele><time>2026-04-09T09:41:09Z</time></trkpt><trkpt lat="43.68505073654154" lon="7.096318274154676"><ele>70.0</ele><time>2026-04-09T09:41:10Z</time></trkpt><trkpt lat="43.685118614006505" lon="7.096456747913198"><ele>70.25</ele><time>2026-04-09T09:41:11Z</time></trkpt><trkpt lat="43.68518036301767" lon="7.096602120670876"><ele>70.5</ele><time>2026-04-09T09:41:12Z</time></trkpt><trkpt lat="43.68523167548143" lon="7.096750356623051"><ele>70.75</ele><time>2026-04-09T09:41:13Z</time></trkpt><trkpt lat="43.68527044901327" lon="7.096893627748403"><ele>71.0</ele><time>2026-04-09T09:41:14Z</time></trkpt><trkpt lat="43.68529596392577" lon="7.097034743615879"><ele>73.19999999999999</ele><time>2026-04-09T09:41:15Z</time></trkpt><trkpt lat="43.6853178777355" lon="7.097185211006834"><ele>75.39999999999999</ele><time>2026-04-09T09:41:16Z</time></trkpt><trkpt lat="43.68534131204235" lon="7.097334770741713"><ele>77.6</ele><time>2026-04-09T09:41:17Z</time></trkpt><trkpt lat="43.68536359689085" lon="7.097475682925161"><ele>79.8</ele><time>2026-04-09T09:41:18Z</time></trkpt><trkpt lat="43.68538470956015" lon="7.0976127886012605"><ele>82.0</ele><time>2026-04-09T09:41:19Z</time></trkpt><trkpt lat="43.685409613807884" lon="7.097761785405589"><ele>82.0</ele><time>2026-04-09T09:41:20.001Z</time></trkpt><trkpt lat="43.685429690921104" lon="7.0978972062400105"><ele>82.0</ele><time>2026-04-09T09:41:21.001Z</time></trkpt><trkpt lat="43.685446859055915" lon="7.098013583509811"><ele>82.0</ele><time>2026-04-09T09:41:22.001Z</time></trkpt><trkpt lat="43.68546361713984" lon="7.0981173629927845"><ele>82.0</ele><time>2026-04-09T09:41:23.001Z</time></trkpt><trkpt lat="43.685482114358884" lon="7.098222583207878"><ele>82.0</ele><time>2026-04-09T09:41:24.001Z</time></trkpt><trkpt lat="43.68550133752976" lon="7.098335553245998"><ele>82.0</ele><time>2026-04-09T09:41:25.001Z</time></trkpt><trkpt lat="43.68551083761" lon="7.098449887492855"><ele>81.39999999999999</ele><time>2026-04-09T09:41:26.001Z</time></trkpt><trkpt lat="43.685530748829315" lon="7.09855364354636"><ele>80.8</ele><time>2026-04-09T09:41:27.001Z</time></trkpt><trkpt lat="43.68554109738235" lon="7.098644607071908"><ele>80.2</ele><time>2026-04-09T09:41:28.001Z</time></trkpt><trkpt lat="43.68556577864339" lon="7.098799533218815"><ele>79.6</ele><time>2026-04-09T09:41:30.001Z</time></trkpt><trkpt lat="43.68556725833039" lon="7.098946376975287"><ele>79.0</ele><time>2026-04-09T09:41:32.001Z</time></trkpt><trkpt lat="43.68548366453472" lon="7.099030821849014"><ele>79.0</ele><time>2026-04-09T09:41:34.001Z</time></trkpt><trkpt lat="43.68541774025469" lon="7.0990479262509885"><ele>79.0</ele><time>2026-04-09T09:41:35.001Z</time></trkpt><trkpt lat="43.68528835547689" lon="7.099063377218795"><ele>79.0</ele><time>2026-04-09T09:41:37.001Z</time></trkpt><trkpt lat="43.685208306844096" lon="7.099066121812865"><ele>79.0</ele><time>2026-04-09T09:41:38.001Z</time></trkpt><trkpt lat="43.68514047535786" lon="7.099069566583908"><ele>79.0</ele><time>2026-04-09T09:41:39.001Z</time></trkpt><trkpt lat="43.68507337846762" lon="7.099078075616486"><ele>79.0</ele><time>2026-04-09T09:41:40.001Z</time></trkpt><trkpt lat="43.68500401315521" lon="7.099120633833553"><ele>79.0</ele><time>2026-04-09T09:41:41.001Z</time></trkpt><trkpt lat="43.68492617662296" lon="7.099185780579626"><ele>79.0</ele><time>2026-04-09T09:41:42.001Z</time></trkpt><trkpt lat="43.684851493482725" lon="7.0992718958570675"><ele>79.0</ele><time>2026-04-09T09:41:43.001Z</time></trkpt><trkpt lat="43.684790527800686" lon="7.099369433285284"><ele>79.0</ele><time>2026-04-09T09:41:44.001Z</time></trkpt><trkpt lat="43.68474870709043" lon="7.099487045578047"><ele>79.0</ele><time>2026-04-09T09:41:45.001Z</time></trkpt><trkpt lat="43.68472713079413" lon="7.099619253012671"><ele>79.0</ele><time>2026-04-09T09:41:46.001Z</time></trkpt><trkpt lat="43.68473534429316" lon="7.099756826717261"><ele>79.0</ele><time>2026-04-09T09:41:47.001Z</time></trkpt><trkpt lat="43.68475193730038" lon="7.099904875011305"><ele>79.0</ele><time>2026-04-09T09:41:48.001Z</time></trkpt><trkpt lat="43.684774126263505" lon="7.100066772796277"><ele>79.0</ele><time>2026-04-09T09:41:49.001Z</time></trkpt><trkpt lat="43.684808897762544" lon="7.1002247646291865"><ele>79.0</ele><time>2026-04-09T09:41:50.001Z</time></trkpt><trkpt lat="43.68483551932524" lon="7.100364367500199"><ele>79.2</ele><time>2026-04-09T09:41:51.001Z</time></trkpt><trkpt lat="43.6848561336252" lon="7.1005032900785485"><ele>79.4</ele><time>2026-04-09T09:41:52.001Z</time></trkpt><trkpt lat="43.684880762518155" lon="7.10064552436763"><ele>79.6</ele><time>2026-04-09T09:41:53.001Z</time></trkpt><trkpt lat="43.68491130531686" lon="7.100783506946956"><ele>79.8</ele><time>2026-04-09T09:41:54.001Z</time></trkpt><trkpt lat="43.684932686136314" lon="7.100890996109585"><ele>80.0</ele><time>2026-04-09T09:41:55.001Z</time></trkpt><trkpt lat="43.68492663644217" lon="7.101084374544982"><ele>76.0</ele><time>2026-04-09T09:41:57.001Z</time></trkpt><trkpt lat="43.684926434446545" lon="7.101218235868326"><ele>76.0</ele><time>2026-04-09T09:41:59.001Z</time></trkpt><trkpt lat="43.684909637539775" lon="7.101336761242435"><ele>76.0</ele><time>2026-04-09T09:42:02.001Z</time></trkpt></trkseg></trk></gpx>